Observation data for Palo Duro Canyon State Park Floor on 01/09/2018      Previous  Date  Next       Current Mesonet Observations  Soil Data  Daily Summary Page  Observations in Plain Language
KPD2 090600Z 16004KT 11/M03 A3009 RMK A01 T01131032  RH  036%=      5-min Rain = 0
KPD2 090601Z 12003KT 11/M03 A3009 RMK A01 T01131032  RH  036%=      5-min Rain = 0
KPD2 090602Z 12004KT 11/M03 A3009 RMK A01 T01131032  RH  036%=      5-min Rain = 0
KPD2 090603Z 13006KT 11/M03 A3009 RMK A01 T01131032  RH  036%=      5-min Rain = 0
KPD2 090604Z 13005KT 11/M03 A3009 RMK A01 T01131032  RH  036%=      5-min Rain = 0
KPD2 090605Z 15004KT 11/M03 A3009 RMK A01 T01121032  RH  036%=      5-min Rain = 0
KPD2 090606Z 13003KT 11/M03 A3008 RMK A01 T01111032  RH  037%=      5-min Rain = 0
KPD2 090607Z 10003KT 11/M03 A3008 RMK A01 T01111032  RH  037%=      5-min Rain = 0
KPD2 090608Z 15003KT 11/M03 A3009 RMK A01 T01111032  RH  037%=      5-min Rain = 0
KPD2 090609Z 13005KT 11/M03 A3008 RMK A01 T01111032  RH  037%=      5-min Rain = 0
KPD2 090610Z 12005KT 11/M03 A3008 RMK A01 T01111032  RH  037%=      5-min Rain = 0
KPD2 090611Z 14003KT 11/M03 A3008 RMK A01 T01111032  RH  037%=      5-min Rain = 0
KPD2 090612Z 11004KT 11/M03 A3008 RMK A01 T01121032  RH  037%=      5-min Rain = 0
KPD2 090613Z 14005KT 11/M03 A3008 RMK A01 T01121031  RH  036%=      5-min Rain = 0
KPD2 090614Z 15007G12KT 11/M03 A3008 RMK A01 T01121032  RH  036%=      5-min Rain = 0
KPD2 090615Z 15005KT 11/M03 A3008 RMK A01 T01131031  RH  036%=      5-min Rain = 0
KPD2 090616Z 12005KT 11/M03 A3008 RMK A01 T01141031  RH  036%=      5-min Rain = 0
KPD2 090617Z 13005KT 11/M03 A3008 RMK A01 T01141032  RH  036%=      5-min Rain = 0
KPD2 090618Z 15004KT 11/M03 A3008 RMK A01 T01141031  RH  036%=      5-min Rain = 0
KPD2 090619Z 16004KT 11/M03 A3008 RMK A01 T01141031  RH  036%=      5-min Rain = 0
KPD2 090620Z 16005KT 11/M03 A3008 RMK A01 T01141032  RH  036%=      5-min Rain = 0
KPD2 090621Z 13006KT 11/M03 A3008 RMK A01 T01141032  RH  036%=      5-min Rain = 0
KPD2 090622Z 13006KT 11/M03 A3007 RMK A01 T01131032  RH  036%=      5-min Rain = 0
KPD2 090623Z 15003KT 11/M03 A3007 RMK A01 T01131031  RH  036%=      5-min Rain = 0
KPD2 090624Z 19001KT 11/M03 A3007 RMK A01 T01131031  RH  036%=      5-min Rain = 0
KPD2 090625Z 14002KT 11/M03 A3007 RMK A01 T01131031  RH  036%=      5-min Rain = 0
KPD2 090626Z 13005KT 11/M03 A3007 RMK A01 T01141031  RH  036%=      5-min Rain = 0
KPD2 090627Z 10004KT 11/M03 A3007 RMK A01 T01141031  RH  036%=      5-min Rain = 0
KPD2 090628Z 19006KT 11/M03 A3008 RMK A01 T01131032  RH  036%=      5-min Rain = 0
KPD2 090629Z 21002KT 11/M03 A3008 RMK A01 T01121032  RH  036%=      5-min Rain = 0
KPD2 090630Z 16002KT 11/M03 A3008 RMK A01 T01121031  RH  037%=      5-min Rain = 0
KPD2 090631Z 09001KT 11/M03 A3007 RMK A01 T01131031  RH  036%=      5-min Rain = 0
KPD2 090632Z 20001KT 11/M03 A3007 RMK A01 T01141031  RH  036%=      5-min Rain = 0
KPD2 090633Z 16003KT 11/M03 A3007 RMK A01 T01141031  RH  036%=      5-min Rain = 0
KPD2 090634Z 21008KT 11/M03 A3007 RMK A01 T01141031  RH  036%=      5-min Rain = 0
KPD2 090635Z 21007KT 11/M03 A3007 RMK A01 T01141031  RH  036%=      5-min Rain = 0
KPD2 090636Z 22004G9KT 12/M03 A3007 RMK A01 T01151030  RH  036%=      5-min Rain = 0
KPD2 090637Z 15004G9KT 12/M03 A3007 RMK A01 T01161031  RH  036%=      5-min Rain = 0
KPD2 090638Z 18008KT 12/M03 A3007 RMK A01 T01151031  RH  036%=      5-min Rain = 0
KPD2 090639Z 20009G15KT 12/M03 A3007 RMK A01 T01161031  RH  036%=      5-min Rain = 0
KPD2 090640Z 19010G18KT 12/M03 A3007 RMK A01 T01171030  RH  036%=      5-min Rain = 0
KPD2 090641Z 18011G19KT 12/M03 A3007 RMK A01 T01181030  RH  036%=      5-min Rain = 0
KPD2 090642Z 19010G16KT 12/M03 A3007 RMK A01 T01181030  RH  035%=      5-min Rain = 0
KPD2 090643Z 18010KT 12/M03 A3007 RMK A01 T01181030  RH  035%=      5-min Rain = 0
KPD2 090644Z 21005G12KT 12/M03 A3006 RMK A01 T01191031  RH  035%=      5-min Rain = 0
KPD2 090645Z 18008G14KT 12/M03 A3006 RMK A01 T01181031  RH  035%=      5-min Rain = 0
KPD2 090646Z 16005G10KT 12/M03 A3006 RMK A01 T01181030  RH  035%=      5-min Rain = 0
KPD2 090647Z 17010KT 12/M03 A3006 RMK A01 T01181030  RH  035%=      5-min Rain = 0
KPD2 090648Z 21009KT 12/M03 A3006 RMK A01 T01181030  RH  035%=      5-min Rain = 0
KPD2 090649Z 18007G12KT 12/M03 A3006 RMK A01 T01181031  RH  035%=      5-min Rain = 0
KPD2 090650Z 21005KT 12/M03 A3006 RMK A01 T01181031  RH  035%=      5-min Rain = 0
KPD2 090651Z 19005KT 12/M03 A3006 RMK A01 T01181031  RH  035%=      5-min Rain = 0
KPD2 090652Z 22004KT 12/M03 A3006 RMK A01 T01181031  RH  035%=      5-min Rain = 0
KPD2 090653Z 21004KT 12/M03 A3006 RMK A01 T01181031  RH  035%=      5-min Rain = 0
KPD2 090654Z 14005KT 12/M03 A3005 RMK A01 T01181031  RH  035%=      5-min Rain = 0
KPD2 090655Z 14005KT 12/M03 A3006 RMK A01 T01171031  RH  035%=      5-min Rain = 0
KPD2 090656Z 17006KT 12/M03 A3006 RMK A01 T01171031  RH  035%=      5-min Rain = 0
KPD2 090657Z 20007KT 12/M03 A3006 RMK A01 T01171031  RH  035%=      5-min Rain = 0
KPD2 090658Z 20007G12KT 12/M03 A3006 RMK A01 T01171031  RH  035%=      5-min Rain = 0
KPD2 090659Z 22007KT 12/M03 A3006 RMK A01 T01171031  RH  035%=      5-min Rain = 0
KPD2 090700Z 19003KT 12/M03 A3006 RMK A01 T01171031  RH  036%=      5-min Rain = 0
KPD2 090701Z 22003KT 12/M03 A3006 RMK A01 T01171031  RH  035%=      5-min Rain = 0
KPD2 090702Z 17009G14KT 12/M03 A3006 RMK A01 T01171031  RH  035%=      5-min Rain = 0
KPD2 090703Z 18007KT 12/M03 A3006 RMK A01 T01171030  RH  036%=      5-min Rain = 0
KPD2 090704Z 18006G12KT 12/M03 A3006 RMK A01 T01171031  RH  036%=      5-min Rain = 0
KPD2 090705Z 18004G9KT 12/M03 A3006 RMK A01 T01171031  RH  036%=      5-min Rain = 0
KPD2 090706Z 21007G13KT 12/M03 A3006 RMK A01 T01171031  RH  036%=      5-min Rain = 0
KPD2 090707Z 18006KT 12/M03 A3006 RMK A01 T01161031  RH  036%=      5-min Rain = 0
KPD2 090708Z 17005KT 12/M03 A3006 RMK A01 T01151031  RH  036%=      5-min Rain = 0
KPD2 090709Z 19005KT 12/M03 A3006 RMK A01 T01151031  RH  036%=      5-min Rain = 0
KPD2 090710Z 18004G9KT 11/M03 A3005 RMK A01 T01141031  RH  036%=      5-min Rain = 0
KPD2 090711Z 29002KT 11/M03 A3005 RMK A01 T01131031  RH  036%=      5-min Rain = 0
KPD2 090712Z 02000KT 11/M03 A3005 RMK A01 T01131032  RH  036%=      5-min Rain = 0
KPD2 090713Z 08002KT 11/M03 A3005 RMK A01 T01121032  RH  036%=      5-min Rain = 0
KPD2 090714Z 12003KT 11/M03 A3004 RMK A01 T01111032  RH  037%=      5-min Rain = 0
KPD2 090715Z 14004KT 11/M03 A3004 RMK A01 T01111032  RH  037%=      5-min Rain = 0
KPD2 090716Z 20004KT 11/M03 A3004 RMK A01 T01101031  RH  037%=      5-min Rain = 0
KPD2 090717Z 16007KT 11/M03 A3004 RMK A01 T01101031  RH  037%=      5-min Rain = 0
KPD2 090718Z 17006KT 11/M03 A3004 RMK A01 T01101031  RH  037%=      5-min Rain = 0
KPD2 090719Z 19006G11KT 11/M03 A3004 RMK A01 T01111031  RH  037%=      5-min Rain = 0
KPD2 090720Z 20007KT 11/M03 A3004 RMK A01 T01121031  RH  037%=      5-min Rain = 0
KPD2 090721Z 18006KT 11/M03 A3004 RMK A01 T01121031  RH  037%=      5-min Rain = 0
KPD2 090722Z 15005KT 11/M03 A3004 RMK A01 T01131031  RH  036%=      5-min Rain = 0
KPD2 090723Z 14004KT 11/M03 A3004 RMK A01 T01131031  RH  036%=      5-min Rain = 0
KPD2 090724Z 15003KT 11/M03 A3004 RMK A01 T01141031  RH  036%=      5-min Rain = 0
KPD2 090725Z 15006KT 11/M03 A3003 RMK A01 T01131031  RH  036%=      5-min Rain = 0
KPD2 090726Z 17009G14KT 11/M03 A3004 RMK A01 T01131031  RH  036%=      5-min Rain = 0
KPD2 090727Z 18005KT 11/M03 A3004 RMK A01 T01131031  RH  037%=      5-min Rain = 0
KPD2 090728Z 30003KT 11/M03 A3004 RMK A01 T01131031  RH  036%=      5-min Rain = 0
KPD2 090729Z 28003KT 11/M03 A3004 RMK A01 T01121031  RH  037%=      5-min Rain = 0
KPD2 090730Z 26006KT 11/M03 A3004 RMK A01 T01111031  RH  037%=      5-min Rain = 0
KPD2 090731Z 26007G12KT 11/M03 A3004 RMK A01 T01111031  RH  037%=      5-min Rain = 0
KPD2 090732Z 26006KT 11/M03 A3004 RMK A01 T01111031  RH  037%=      5-min Rain = 0
KPD2 090733Z 27005KT 11/M03 A3004 RMK A01 T01111031  RH  037%=      5-min Rain = 0
KPD2 090734Z 31004KT 11/M03 A3004 RMK A01 T01101031  RH  037%=      5-min Rain = 0
KPD2 090735Z 27007KT 11/M03 A3004 RMK A01 T01101031  RH  037%=      5-min Rain = 0
KPD2 090736Z 31005KT 11/M03 A3004 RMK A01 T01091031  RH  037%=      5-min Rain = 0
KPD2 090737Z 36004KT 11/M03 A3004 RMK A01 T01091031  RH  037%=      5-min Rain = 0
KPD2 090738Z 26002KT 11/M03 A3004 RMK A01 T01091031  RH  037%=      5-min Rain = 0
KPD2 090739Z 28003KT 11/M03 A3004 RMK A01 T01091031  RH  037%=      5-min Rain = 0
KPD2 090740Z 20006KT 11/M03 A3004 RMK A01 T01081031  RH  038%=      5-min Rain = 0
KPD2 090741Z 22005KT 11/M03 A3004 RMK A01 T01081031  RH  038%=      5-min Rain = 0
KPD2 090742Z 15004KT 11/M03 A3004 RMK A01 T01091030  RH  037%=      5-min Rain = 0
KPD2 090743Z 17002KT 11/M03 A3004 RMK A01 T01111030  RH  037%=      5-min Rain = 0
KPD2 090744Z 14003KT 11/M03 A3004 RMK A01 T01111030  RH  037%=      5-min Rain = 0
KPD2 090745Z 13002KT 11/M03 A3003 RMK A01 T01111031  RH  037%=      5-min Rain = 0
KPD2 090746Z 03001KT 11/M03 A3004 RMK A01 T01111031  RH  037%=      5-min Rain = 0
KPD2 090747Z 03003KT 11/M03 A3003 RMK A01 T01111031  RH  037%=      5-min Rain = 0
KPD2 090748Z 02002KT 11/M03 A3003 RMK A01 T01111031  RH  037%=      5-min Rain = 0
KPD2 090749Z 10002KT 11/M03 A3003 RMK A01 T01101031  RH  037%=      5-min Rain = 0
KPD2 090750Z 02003KT 11/M03 A3003 RMK A01 T01101031  RH  037%=      5-min Rain = 0
KPD2 090751Z 07004KT 11/M03 A3003 RMK A01 T01091031  RH  037%=      5-min Rain = 0
KPD2 090752Z 08002KT 11/M03 A3004 RMK A01 T01081031  RH  038%=      5-min Rain = 0
KPD2 090753Z 32001KT 11/M03 A3004 RMK A01 T01071031  RH  038%=      5-min Rain = 0
KPD2 090754Z 29002KT 11/M03 A3003 RMK A01 T01071031  RH  038%=      5-min Rain = 0
KPD2 090755Z 28004KT 11/M03 A3004 RMK A01 T01081030  RH  038%=      5-min Rain = 0
KPD2 090756Z 01002KT 11/M03 A3003 RMK A01 T01091030  RH  038%=      5-min Rain = 0
KPD2 090757Z 09000KT 11/M03 A3004 RMK A01 T01081031  RH  038%=      5-min Rain = 0
KPD2 090758Z 02001KT 11/M03 A3004 RMK A01 T01081031  RH  038%=      5-min Rain = 0
KPD2 090759Z 34003KT 11/M03 A3004 RMK A01 T01071031  RH  038%=      5-min Rain = 0
KPD2 090800Z 30004KT 11/M03 A3004 RMK A01 T01061032  RH  038%=      5-min Rain = 0
KPD2 090801Z 27009KT 11/M03 A3004 RMK A01 T01061031  RH  038%=      5-min Rain = 0
KPD2 090802Z 27010G15KT 11/M03 A3004 RMK A01 T01071031  RH  038%=      5-min Rain = 0
KPD2 090803Z 26008KT 11/M03 A3004 RMK A01 T01081030  RH  038%=      5-min Rain = 0
KPD2 090804Z 27010G15KT 11/M03 A3004 RMK A01 T01081031  RH  038%=      5-min Rain = 0
KPD2 090805Z 25011KT 11/M03 A3004 RMK A01 T01081031  RH  038%=      5-min Rain = 0
KPD2 090806Z 26009KT 11/M03 A3004 RMK A01 T01081031  RH  038%=      5-min Rain = 0
KPD2 090807Z 23004KT 11/M03 A3004 RMK A01 T01081031  RH  037%=      5-min Rain = 0
KPD2 090808Z 26005G11KT 11/M03 A3004 RMK A01 T01091030  RH  038%=      5-min Rain = 0
KPD2 090809Z 22008KT 11/M03 A3004 RMK A01 T01081031  RH  038%=      5-min Rain = 0
KPD2 090810Z 25007G12KT 11/M03 A3004 RMK A01 T01081030  RH  038%=      5-min Rain = 0
KPD2 090811Z 21004KT 11/M03 A3004 RMK A01 T01081031  RH  038%=      5-min Rain = 0
KPD2 090812Z 23006KT 11/M03 A3004 RMK A01 T01081031  RH  038%=      5-min Rain = 0
KPD2 090813Z 22007KT 11/M03 A3004 RMK A01 T01081030  RH  038%=      5-min Rain = 0
KPD2 090814Z 24007KT 11/M03 A3004 RMK A01 T01091030  RH  038%=      5-min Rain = 0
KPD2 090815Z 22004G9KT 11/M03 A3004 RMK A01 T01091030  RH  038%=      5-min Rain = 0
KPD2 090816Z 21005G10KT 11/M03 A3005 RMK A01 T01101030  RH  037%=      5-min Rain = 0
KPD2 090817Z 22008KT 11/M03 A3005 RMK A01 T01101030  RH  037%=      5-min Rain = 0
KPD2 090818Z 24007KT 11/M03 A3005 RMK A01 T01111030  RH  037%=      5-min Rain = 0
KPD2 090819Z 21010G15KT 11/M03 A3005 RMK A01 T01111030  RH  037%=      5-min Rain = 0
KPD2 090820Z 25009G19KT 11/M03 A3005 RMK A01 T01121029  RH  037%=      5-min Rain = 0
KPD2 090821Z 23006G16KT 11/M03 A3005 RMK A01 T01121030  RH  037%=      5-min Rain = 0
KPD2 090822Z 26007KT 11/M03 A3005 RMK A01 T01121030  RH  037%=      5-min Rain = 0
KPD2 090823Z 28005KT 11/M03 A3005 RMK A01 T01121029  RH  037%=      5-min Rain = 0
KPD2 090824Z 18003KT 11/M03 A3005 RMK A01 T01121030  RH  037%=      5-min Rain = 0
KPD2 090825Z 29005KT 11/M03 A3005 RMK A01 T01121030  RH  037%=      5-min Rain = 0
KPD2 090826Z 24006KT 11/M03 A3005 RMK A01 T01111030  RH  037%=      5-min Rain = 0
KPD2 090827Z 28005G13KT 11/M03 A3005 RMK A01 T01111030  RH  037%=      5-min Rain = 0
KPD2 090828Z 25010KT 11/M03 A3005 RMK A01 T01111030  RH  037%=      5-min Rain = 0
KPD2 090829Z 21006KT 11/M03 A3005 RMK A01 T01121029  RH  037%=      5-min Rain = 0
KPD2 090830Z 26002KT 11/M03 A3004 RMK A01 T01131030  RH  037%=      5-min Rain = 0
KPD2 090831Z 24006G11KT 11/M03 A3005 RMK A01 T01141030  RH  037%=      5-min Rain = 0
KPD2 090832Z 21008KT 11/M03 A3004 RMK A01 T01131030  RH  037%=      5-min Rain = 0
KPD2 090833Z 25004G10KT 11/M03 A3004 RMK A01 T01131030  RH  037%=      5-min Rain = 0
KPD2 090834Z 27003KT 11/M03 A3004 RMK A01 T01131030  RH  037%=      5-min Rain = 0
KPD2 090835Z 24004KT 11/M03 A3004 RMK A01 T01131030  RH  036%=      5-min Rain = 0
KPD2 090836Z 26005G11KT 11/M03 A3004 RMK A01 T01131031  RH  036%=      5-min Rain = 0
KPD2 090837Z 23006KT 11/M03 A3004 RMK A01 T01131031  RH  036%=      5-min Rain = 0
KPD2 090838Z 21004KT 11/M03 A3004 RMK A01 T01131030  RH  037%=      5-min Rain = 0
KPD2 090839Z 28008G13KT 11/M03 A3004 RMK A01 T01131031  RH  036%=      5-min Rain = 0
KPD2 090840Z 23005KT 11/M03 A3004 RMK A01 T01121031  RH  037%=      5-min Rain = 0
KPD2 090841Z 15003KT 11/M03 A3004 RMK A01 T01121031  RH  037%=      5-min Rain = 0
KPD2 090842Z 28002KT 11/M03 A3004 RMK A01 T01121031  RH  036%=      5-min Rain = 0
KPD2 090843Z 24003G8KT 11/M03 A3004 RMK A01 T01121031  RH  036%=      5-min Rain = 0
KPD2 090844Z 24004KT 11/M03 A3004 RMK A01 T01121032  RH  036%=      5-min Rain = 0
KPD2 090845Z 27006KT 11/M03 A3004 RMK A01 T01131031  RH  036%=      5-min Rain = 0
KPD2 090846Z 25003G9KT 11/M03 A3004 RMK A01 T01131031  RH  036%=      5-min Rain = 0
KPD2 090847Z 24006KT 11/M03 A3004 RMK A01 T01141031  RH  036%=      5-min Rain = 0
KPD2 090848Z 25008G15KT 11/M03 A3004 RMK A01 T01141031  RH  036%=      5-min Rain = 0
KPD2 090849Z 20005KT 11/M03 A3004 RMK A01 T01141032  RH  036%=      5-min Rain = 0
KPD2 090850Z 30003KT 11/M03 A3003 RMK A01 T01141032  RH  036%=      5-min Rain = 0
KPD2 090851Z 30002KT 11/M03 A3003 RMK A01 T01141032  RH  036%=      5-min Rain = 0
KPD2 090852Z 25005G10KT 11/M03 A3003 RMK A01 T01131032  RH  036%=      5-min Rain = 0
KPD2 090853Z 25005KT 11/M03 A3003 RMK A01 T01121033  RH  036%=      5-min Rain = 0
KPD2 090854Z 26006G11KT 11/M03 A3003 RMK A01 T01121033  RH  036%=      5-min Rain = 0
KPD2 090855Z 25007G13KT 11/M03 A3003 RMK A01 T01121033  RH  036%=      5-min Rain = 0
KPD2 090856Z 24005KT 11/M03 A3003 RMK A01 T01121033  RH  036%=      5-min Rain = 0
KPD2 090857Z 24007G12KT 11/M03 A3003 RMK A01 T01121033  RH  036%=      5-min Rain = 0
KPD2 090858Z 22003KT 11/M03 A3003 RMK A01 T01121033  RH  036%=      5-min Rain = 0
KPD2 090859Z 26003KT 11/M03 A3003 RMK A01 T01121032  RH  036%=      5-min Rain = 0
KPD2 090900Z 24002KT 11/M03 A3003 RMK A01 T01121033  RH  036%=      5-min Rain = 0
KPD2 090901Z 12001KT 11/M03 A3002 RMK A01 T01111033  RH  036%=      5-min Rain = 0
KPD2 090902Z 31001KT 11/M03 A3003 RMK A01 T01101033  RH  037%=      5-min Rain = 0
KPD2 090903Z 00003KT 11/M03 A3002 RMK A01 T01101033  RH  037%=      5-min Rain = 0
KPD2 090904Z 33002KT 11/M03 A3002 RMK A01 T01121032  RH  036%=      5-min Rain = 0
KPD2 090905Z 27003KT 11/M03 A3002 RMK A01 T01121033  RH  036%=      5-min Rain = 0
KPD2 090906Z 11003KT 11/M03 A3002 RMK A01 T01121033  RH  036%=      5-min Rain = 0
KPD2 090907Z 34005G10KT 11/M03 A3002 RMK A01 T01111033  RH  036%=      5-min Rain = 0
KPD2 090908Z 25004G11KT 11/M03 A3002 RMK A01 T01111033  RH  036%=      5-min Rain = 0
KPD2 090909Z 22004KT 11/M03 A3002 RMK A01 T01111033  RH  036%=      5-min Rain = 0
KPD2 090910Z 29005KT 11/M03 A3002 RMK A01 T01111033  RH  036%=      5-min Rain = 0
KPD2 090911Z 25005KT 11/M03 A3003 RMK A01 T01111034  RH  036%=      5-min Rain = 0
KPD2 090912Z 27006KT 11/M03 A3003 RMK A01 T01101034  RH  036%=      5-min Rain = 0
KPD2 090913Z 22005KT 11/M03 A3002 RMK A01 T01091034  RH  036%=      5-min Rain = 0
KPD2 090914Z 15001KT 11/M03 A3002 RMK A01 T01091034  RH  036%=      5-min Rain = 0
KPD2 090915Z 27004KT 11/M03 A3002 RMK A01 T01101033  RH  037%=      5-min Rain = 0
KPD2 090916Z 24005KT 11/M03 A3002 RMK A01 T01101033  RH  037%=      5-min Rain = 0
KPD2 090917Z 24007G15KT 11/M03 A3002 RMK A01 T01101034  RH  036%=      5-min Rain = 0
KPD2 090918Z 29004KT 11/M03 A3002 RMK A01 T01091034  RH  036%=      5-min Rain = 0
KPD2 090919Z 26007KT 11/M03 A3002 RMK A01 T01091034  RH  036%=      5-min Rain = 0
KPD2 090920Z 26004KT 11/M03 A3002 RMK A01 T01101034  RH  036%=      5-min Rain = 0
KPD2 090921Z 28005G11KT 11/M03 A3002 RMK A01 T01091034  RH  036%=      5-min Rain = 0
KPD2 090922Z 26006KT 11/M03 A3002 RMK A01 T01101034  RH  036%=      5-min Rain = 0
KPD2 090923Z 25008KT 11/M03 A3002 RMK A01 T01091034  RH  036%=      5-min Rain = 0
KPD2 090924Z 26006KT 11/M03 A3002 RMK A01 T01091034  RH  036%=      5-min Rain = 0
KPD2 090925Z 27006KT 11/M03 A3002 RMK A01 T01081034  RH  037%=      5-min Rain = 0
KPD2 090926Z 27005G10KT 11/M03 A3002 RMK A01 T01081034  RH  037%=      5-min Rain = 0
KPD2 090927Z 27007KT 11/M03 A3002 RMK A01 T01081034  RH  037%=      5-min Rain = 0
KPD2 090928Z 23008KT 11/M03 A3002 RMK A01 T01081034  RH  037%=      5-min Rain = 0
KPD2 090929Z 27006KT 11/M03 A3002 RMK A01 T01081034  RH  037%=      5-min Rain = 0
KPD2 090930Z 27006KT 11/M03 A3002 RMK A01 T01081034  RH  037%=      5-min Rain = 0
KPD2 090931Z 22009KT 11/M04 A3002 RMK A01 T01071035  RH  037%=      5-min Rain = 0
KPD2 090932Z 22009KT 11/M03 A3002 RMK A01 T01071034  RH  037%=      5-min Rain = 0
KPD2 090933Z 23006KT 11/M03 A3002 RMK A01 T01071034  RH  037%=      5-min Rain = 0
KPD2 090934Z 20009G17KT 11/M03 A3002 RMK A01 T01071034  RH  037%=      5-min Rain = 0
KPD2 090935Z 26005KT 11/M03 A3002 RMK A01 T01071034  RH  037%=      5-min Rain = 0
KPD2 090936Z 21007KT 11/M04 A3002 RMK A01 T01071035  RH  037%=      5-min Rain = 0
KPD2 090937Z 25006KT 11/M03 A3002 RMK A01 T01071034  RH  037%=      5-min Rain = 0
KPD2 090938Z 20005KT 11/M03 A3001 RMK A01 T01081034  RH  037%=      5-min Rain = 0
KPD2 090939Z 22002KT 11/M04 A3001 RMK A01 T01071035  RH  037%=      5-min Rain = 0
KPD2 090940Z 24006KT 11/M04 A3002 RMK A01 T01071035  RH  037%=      5-min Rain = 0
KPD2 090941Z 22004KT 11/M04 A3002 RMK A01 T01071035  RH  037%=      5-min Rain = 0
KPD2 090942Z 26007KT 11/M03 A3002 RMK A01 T01071034  RH  037%=      5-min Rain = 0
KPD2 090943Z 00001KT 11/M03 A3002 RMK A01 T01071034  RH  037%=      5-min Rain = 0
KPD2 090944Z 24005G11KT 11/M03 A3002 RMK A01 T01071034  RH  037%=      5-min Rain = 0
KPD2 090945Z 24009KT 11/M03 A3002 RMK A01 T01081034  RH  037%=      5-min Rain = 0
KPD2 090946Z 29005G10KT 11/M03 A3002 RMK A01 T01091034  RH  037%=      5-min Rain = 0
KPD2 090947Z 28003G10KT 11/M03 A3002 RMK A01 T01101033  RH  037%=      5-min Rain = 0
KPD2 090948Z 15002KT 11/M03 A3002 RMK A01 T01111033  RH  036%=      5-min Rain = 0
KPD2 090949Z 31006G11KT 11/M03 A3002 RMK A01 T01101033  RH  036%=      5-min Rain = 0
KPD2 090950Z 27008KT 11/M03 A3002 RMK A01 T01101034  RH  036%=      5-min Rain = 0
KPD2 090951Z 26003KT 11/M03 A3002 RMK A01 T01101033  RH  037%=      5-min Rain = 0
KPD2 090952Z 26010KT 11/M03 A3002 RMK A01 T01101033  RH  037%=      5-min Rain = 0
KPD2 090953Z 26007KT 11/M03 A3002 RMK A01 T01111033  RH  036%=      5-min Rain = 0
KPD2 090954Z 29003KT 11/M03 A3002 RMK A01 T01111033  RH  036%=      5-min Rain = 0
KPD2 090955Z 26007G12KT 11/M03 A3002 RMK A01 T01101034  RH  036%=      5-min Rain = 0
KPD2 090956Z 23006KT 11/M03 A3002 RMK A01 T01091034  RH  036%=      5-min Rain = 0
KPD2 090957Z 25009G14KT 11/M03 A3002 RMK A01 T01091034  RH  037%=      5-min Rain = 0
KPD2 090958Z 27007KT 11/M03 A3002 RMK A01 T01091034  RH  037%=      5-min Rain = 0
KPD2 090959Z 24006G11KT 11/M03 A3003 RMK A01 T01101034  RH  036%=      5-min Rain = 0
KPD2 091000Z 24008G13KT 11/M03 A3003 RMK A01 T01091034  RH  037%=      5-min Rain = 0
KPD2 091001Z 26005KT 11/M03 A3002 RMK A01 T01091034  RH  037%=      5-min Rain = 0
KPD2 091002Z 23008G19KT 11/M03 A3003 RMK A01 T01091034  RH  037%=      5-min Rain = 0
KPD2 091003Z 24008G19KT 11/M03 A3002 RMK A01 T01091034  RH  037%=      5-min Rain = 0
KPD2 091004Z 28008KT 11/M03 A3003 RMK A01 T01081034  RH  037%=      5-min Rain = 0
KPD2 091005Z 24004KT 11/M03 A3002 RMK A01 T01081034  RH  037%=      5-min Rain = 0
KPD2 091006Z 26008KT 11/M03 A3002 RMK A01 T01081034  RH  037%=      5-min Rain = 0
KPD2 091007Z 27005KT 11/M03 A3002 RMK A01 T01071033  RH  037%=      5-min Rain = 0
KPD2 091008Z 23009G15KT 11/M03 A3002 RMK A01 T01071033  RH  037%=      5-min Rain = 0
KPD2 091009Z 27009KT 11/M03 A3002 RMK A01 T01071034  RH  037%=      5-min Rain = 0
KPD2 091010Z 22003G10KT 11/M03 A3002 RMK A01 T01071034  RH  037%=      5-min Rain = 0
KPD2 091011Z 25004KT 11/M03 A3002 RMK A01 T01071034  RH  037%=      5-min Rain = 0
KPD2 091012Z 27007KT 11/M03 A3002 RMK A01 T01061034  RH  037%=      5-min Rain = 0
KPD2 091013Z 27007KT 11/M03 A3002 RMK A01 T01061034  RH  037%=      5-min Rain = 0
KPD2 091014Z 30004KT 11/M03 A3002 RMK A01 T01061034  RH  037%=      5-min Rain = 0
KPD2 091015Z 34002KT 11/M03 A3002 RMK A01 T01061034  RH  037%=      5-min Rain = 0
KPD2 091016Z 29005KT 11/M03 A3002 RMK A01 T01051034  RH  037%=      5-min Rain = 0
KPD2 091017Z 22007KT 10/M04 A3002 RMK A01 T01041035  RH  038%=      5-min Rain = 0
KPD2 091018Z 24007KT 10/M03 A3002 RMK A01 T01041034  RH  038%=      5-min Rain = 0
KPD2 091019Z 29005KT 11/M03 A3002 RMK A01 T01051033  RH  038%=      5-min Rain = 0
KPD2 091020Z 26002KT 11/M03 A3002 RMK A01 T01051034  RH  038%=      5-min Rain = 0
KPD2 091021Z 23008G15KT 10/M03 A3002 RMK A01 T01041034  RH  038%=      5-min Rain = 0
KPD2 091022Z 24006G13KT 11/M03 A3002 RMK A01 T01051033  RH  038%=      5-min Rain = 0
KPD2 091023Z 20006KT 11/M03 A3001 RMK A01 T01061033  RH  038%=      5-min Rain = 0
KPD2 091024Z 29007G12KT 11/M03 A3001 RMK A01 T01061033  RH  037%=      5-min Rain = 0
KPD2 091025Z 28006KT 11/M03 A3001 RMK A01 T01071033  RH  037%=      5-min Rain = 0
KPD2 091026Z 26009KT 11/M03 A3001 RMK A01 T01071033  RH  037%=      5-min Rain = 0
KPD2 091027Z 23007G12KT 11/M03 A3001 RMK A01 T01071032  RH  037%=      5-min Rain = 0
KPD2 091028Z 26005KT 11/M03 A3001 RMK A01 T01081033  RH  037%=      5-min Rain = 0
KPD2 091029Z 25004G10KT 11/M03 A3001 RMK A01 T01081033  RH  037%=      5-min Rain = 0
KPD2 091030Z 25011KT 11/M03 A3001 RMK A01 T01071033  RH  037%=      5-min Rain = 0
KPD2 091031Z 24009G16KT 11/M03 A3001 RMK A01 T01071033  RH  037%=      5-min Rain = 0
KPD2 091032Z 25013G20KT 11/M03 A3001 RMK A01 T01071033  RH  037%=      5-min Rain = 0
KPD2 091033Z 25007KT 11/M03 A3001 RMK A01 T01071033  RH  037%=      5-min Rain = 0
KPD2 091034Z 26005KT 11/M03 A3001 RMK A01 T01061033  RH  037%=      5-min Rain = 0
KPD2 091035Z 25004KT 11/M03 A3001 RMK A01 T01061034  RH  037%=      5-min Rain = 0
KPD2 091036Z 23004G9KT 11/M03 A3001 RMK A01 T01051034  RH  038%=      5-min Rain = 0
KPD2 091037Z 26005G10KT 11/M03 A3001 RMK A01 T01051034  RH  038%=      5-min Rain = 0
KPD2 091038Z 21006G11KT 10/M03 A3001 RMK A01 T01041034  RH  038%=      5-min Rain = 0
KPD2 091039Z 25006KT 10/M03 A3001 RMK A01 T01041033  RH  038%=      5-min Rain = 0
KPD2 091040Z 25006KT 10/M03 A3001 RMK A01 T01041034  RH  038%=      5-min Rain = 0
KPD2 091041Z 25007G12KT 10/M03 A30 RMK A01 T01041033  RH  038%=      5-min Rain = 0
KPD2 091042Z 26002G7KT 10/M03 A30 RMK A01 T01041033  RH  038%=      5-min Rain = 0
KPD2 091043Z 26002KT 10/M03 A30 RMK A01 T01041033  RH  038%=      5-min Rain = 0
KPD2 091044Z 15002KT 10/M03 A30 RMK A01 T01041033  RH  038%=      5-min Rain = 0
KPD2 091045Z 28003KT 10/M03 A30 RMK A01 T01031033  RH  038%=      5-min Rain = 0
KPD2 091046Z 32004KT 10/M03 A30 RMK A01 T01041033  RH  038%=      5-min Rain = 0
KPD2 091047Z 26003KT 11/M03 A2999 RMK A01 T01051032  RH  038%=      5-min Rain = 0
KPD2 091048Z 22004KT 11/M03 A30 RMK A01 T01051033  RH  038%=      5-min Rain = 0
KPD2 091049Z 11002KT 10/M03 A2999 RMK A01 T01041033  RH  038%=      5-min Rain = 0
KPD2 091050Z 06005KT 10/M03 A2999 RMK A01 T01041033  RH  038%=      5-min Rain = 0
KPD2 091051Z 25002KT 10/M03 A2999 RMK A01 T01031033  RH  038%=      5-min Rain = 0
KPD2 091052Z 25006KT 10/M03 A2999 RMK A01 T01021033  RH  038%=      5-min Rain = 0
KPD2 091053Z 27008G14KT 10/M03 A2999 RMK A01 T01041032  RH  038%=      5-min Rain = 0
KPD2 091054Z 26005KT 11/M03 A2999 RMK A01 T01061031  RH  038%=      5-min Rain = 0
KPD2 091055Z 24008G15KT 11/M03 A2999 RMK A01 T01061032  RH  038%=      5-min Rain = 0
KPD2 091056Z 25003KT 11/M03 A2999 RMK A01 T01071032  RH  038%=      5-min Rain = 0
KPD2 091057Z 23005G13KT 11/M03 A2999 RMK A01 T01071032  RH  038%=      5-min Rain = 0
KPD2 091058Z 21011G18KT 11/M03 A2999 RMK A01 T01061032  RH  038%=      5-min Rain = 0
KPD2 091059Z 26012KT 11/M03 A2999 RMK A01 T01071031  RH  038%=      5-min Rain = 0
KPD2 091100Z 22013G21KT 11/M03 A2999 RMK A01 T01081031  RH  037%=      5-min Rain = 0
KPD2 091101Z 24011G21KT 11/M03 A2999 RMK A01 T01091031  RH  037%=      5-min Rain = 0
KPD2 091102Z 22005G11KT 11/M03 A2999 RMK A01 T01111031  RH  037%=      5-min Rain = 0
KPD2 091103Z 23009G18KT 11/M03 A2999 RMK A01 T01121031  RH  037%=      5-min Rain = 0
KPD2 091104Z 22008G16KT 11/M03 A2999 RMK A01 T01121031  RH  037%=      5-min Rain = 0
KPD2 091105Z 24007G12KT 11/M03 A2999 RMK A01 T01121031  RH  037%=      5-min Rain = 0
KPD2 091106Z 24005KT 11/M03 A2999 RMK A01 T01111032  RH  037%=      5-min Rain = 0
KPD2 091107Z 24011G16KT 11/M03 A30 RMK A01 T01111032  RH  037%=      5-min Rain = 0
KPD2 091108Z 25008G15KT 11/M03 A30 RMK A01 T01101031  RH  037%=      5-min Rain = 0
KPD2 091109Z 26004KT 11/M03 A30 RMK A01 T01101031  RH  037%=      5-min Rain = 0
KPD2 091110Z 25010KT 11/M03 A2999 RMK A01 T01101031  RH  037%=      5-min Rain = 0
KPD2 091111Z 24005KT 11/M03 A2999 RMK A01 T01101031  RH  037%=      5-min Rain = 0
KPD2 091112Z 24006G11KT 11/M03 A2999 RMK A01 T01101032  RH  037%=      5-min Rain = 0
KPD2 091113Z 23010G15KT 11/M03 A2999 RMK A01 T01091032  RH  037%=      5-min Rain = 0
KPD2 091114Z 24012G18KT 11/M03 A2999 RMK A01 T01091031  RH  037%=      5-min Rain = 0
KPD2 091115Z 25006KT 11/M03 A2999 RMK A01 T01091032  RH  037%=      5-min Rain = 0
KPD2 091116Z 24010KT 11/M03 A2999 RMK A01 T01081032  RH  037%=      5-min Rain = 0
KPD2 091117Z 25007G12KT 11/M03 A2999 RMK A01 T01071032  RH  037%=      5-min Rain = 0
KPD2 091118Z 26007KT 11/M03 A2999 RMK A01 T01071032  RH  038%=      5-min Rain = 0
KPD2 091119Z 24009KT 11/M03 A2999 RMK A01 T01061032  RH  038%=      5-min Rain = 0
KPD2 091120Z 25009KT 11/M03 A2999 RMK A01 T01061032  RH  038%=      5-min Rain = 0
KPD2 091121Z 25008KT 11/M03 A2999 RMK A01 T01061032  RH  038%=      5-min Rain = 0
KPD2 091122Z 26006KT 11/M03 A2998 RMK A01 T01061032  RH  038%=      5-min Rain = 0
KPD2 091123Z 22002KT 11/M03 A2998 RMK A01 T01051032  RH  038%=      5-min Rain = 0
KPD2 091124Z 28003KT 10/M03 A2998 RMK A01 T01041033  RH  038%=      5-min Rain = 0
KPD2 091125Z 25004KT 10/M03 A2998 RMK A01 T01031033  RH  038%=      5-min Rain = 0
KPD2 091126Z 25003KT 10/M03 A2998 RMK A01 T01031032  RH  038%=      5-min Rain = 0
KPD2 091127Z 28004KT 10/M03 A2998 RMK A01 T01031032  RH  038%=      5-min Rain = 0
KPD2 091128Z 23002KT 10/M03 A2998 RMK A01 T01041032  RH  038%=      5-min Rain = 0
KPD2 091129Z 26006KT 10/M03 A2998 RMK A01 T01041032  RH  038%=      5-min Rain = 0
KPD2 091130Z 25008KT 10/M03 A2998 RMK A01 T01041032  RH  038%=      5-min Rain = 0
KPD2 091131Z 27008KT 10/M03 A2998 RMK A01 T01031032  RH  039%=      5-min Rain = 0
KPD2 091132Z 30005KT 10/M03 A2998 RMK A01 T01041032  RH  039%=      5-min Rain = 0
KPD2 091133Z 31002KT 11/M03 A2998 RMK A01 T01051031  RH  038%=      5-min Rain = 0
KPD2 091134Z 11002KT 11/M03 A2998 RMK A01 T01051032  RH  038%=      5-min Rain = 0
KPD2 091135Z 15002KT 11/M03 A2997 RMK A01 T01051032  RH  038%=      5-min Rain = 0
KPD2 091136Z 18004KT 11/M03 A2998 RMK A01 T01051032  RH  038%=      5-min Rain = 0
KPD2 091137Z 12001KT 10/M03 A2997 RMK A01 T01041032  RH  038%=      5-min Rain = 0
KPD2 091138Z 11003KT 10/M03 A2997 RMK A01 T01041032  RH  038%=      5-min Rain = 0
KPD2 091139Z 11003KT 10/M03 A2997 RMK A01 T01031032  RH  038%=      5-min Rain = 0
KPD2 091140Z 16004KT 10/M03 A2997 RMK A01 T01021033  RH  039%=      5-min Rain = 0
KPD2 091141Z 18006KT 10/M03 A2997 RMK A01 T01011032  RH  039%=      5-min Rain = 0
KPD2 091142Z 20008KT 10/M03 A2997 RMK A01 T01011032  RH  039%=      5-min Rain = 0
KPD2 091143Z 19007KT 10/M03 A2997 RMK A01 T01031031  RH  039%=      5-min Rain = 0
KPD2 091144Z 17006KT 10/M03 A2997 RMK A01 T01041031  RH  039%=      5-min Rain = 0
KPD2 091145Z 19006KT 10/M03 A2997 RMK A01 T01041031  RH  039%=      5-min Rain = 0
KPD2 091146Z 20004KT 10/M03 A2997 RMK A01 T01041031  RH  039%=      5-min Rain = 0
KPD2 091147Z 19004KT 10/M03 A2997 RMK A01 T01041031  RH  039%=      5-min Rain = 0
KPD2 091148Z 17004KT 10/M03 A2997 RMK A01 T01041031  RH  039%=      5-min Rain = 0
KPD2 091149Z 20003KT 11/M03 A2997 RMK A01 T01051030  RH  039%=      5-min Rain = 0
KPD2 091150Z 19006KT 11/M03 A2997 RMK A01 T01061030  RH  038%=      5-min Rain = 0
KPD2 091151Z 22006KT 11/M03 A2997 RMK A01 T01071030  RH  038%=      5-min Rain = 0
KPD2 091152Z 20004KT 11/M03 A2997 RMK A01 T01081030  RH  038%=      5-min Rain = 0
KPD2 091153Z 19003KT 11/M03 A2997 RMK A01 T01071030  RH  038%=      5-min Rain = 0
KPD2 091154Z 21003KT 11/M03 A2997 RMK A01 T01081030  RH  038%=      5-min Rain = 0
KPD2 091155Z 19006KT 11/M03 A2997 RMK A01 T01081030  RH  038%=      5-min Rain = 0
KPD2 091156Z 18008G13KT 11/M03 A2996 RMK A01 T01081030  RH  038%=      5-min Rain = 0
KPD2 091157Z 18010KT 11/M03 A2996 RMK A01 T01081030  RH  038%=      5-min Rain = 0
KPD2 091158Z 20010G15KT 11/M03 A2996 RMK A01 T01091029  RH  038%=      5-min Rain = 0
KPD2 091159Z 18010G16KT 11/M03 A2996 RMK A01 T01101029  RH  038%=      5-min Rain = 0
KPD2 091200Z 19014G19KT 11/M03 A2996 RMK A01 T01101029  RH  038%=      5-min Rain = 0
KPD2 091201Z 20011KT 11/M03 A2996 RMK A01 T01091029  RH  038%=      5-min Rain = 0
KPD2 091202Z 20009G15KT 11/M03 A2996 RMK A01 T01101029  RH  038%=      5-min Rain = 0
KPD2 091203Z 20012G22KT 11/M03 A2996 RMK A01 T01111029  RH  037%=      5-min Rain = 0
KPD2 091204Z 19009KT 11/M03 A2996 RMK A01 T01121029  RH  037%=      5-min Rain = 0
KPD2 091205Z 22009G14KT 11/M03 A2996 RMK A01 T01131029  RH  037%=      5-min Rain = 0
KPD2 091206Z 21004G12KT 11/M03 A2996 RMK A01 T01131029  RH  037%=      5-min Rain = 0
KPD2 091207Z 24010G15KT 11/M03 A2996 RMK A01 T01131029  RH  037%=      5-min Rain = 0
KPD2 091208Z 20006G11KT 11/M03 A2996 RMK A01 T01131029  RH  037%=      5-min Rain = 0
KPD2 091209Z 22004KT 11/M03 A2996 RMK A01 T01141029  RH  037%=      5-min Rain = 0
KPD2 091210Z 20005KT 11/M03 A2996 RMK A01 T01141029  RH  037%=      5-min Rain = 0
KPD2 091211Z 21005G10KT 12/M03 A2996 RMK A01 T01151029  RH  037%=      5-min Rain = 0
KPD2 091212Z 22006KT 12/M03 A2996 RMK A01 T01151028  RH  037%=      5-min Rain = 0
KPD2 091213Z 23013G19KT 12/M03 A2997 RMK A01 T01161028  RH  036%=      5-min Rain = 0
KPD2 091214Z 22007G15KT 12/M03 A2997 RMK A01 T01171028  RH  036%=      5-min Rain = 0
KPD2 091215Z 22008G17KT 12/M03 A2997 RMK A01 T01171028  RH  036%=      5-min Rain = 0
KPD2 091216Z 23010G20KT 12/M03 A2997 RMK A01 T01171028  RH  036%=      5-min Rain = 0
KPD2 091217Z 24007G13KT 12/M03 A2997 RMK A01 T01171028  RH  036%=      5-min Rain = 0
KPD2 091218Z 23008KT 12/M03 A2997 RMK A01 T01171028  RH  036%=      5-min Rain = 0
KPD2 091219Z 25006G11KT 12/M03 A2997 RMK A01 T01181028  RH  036%=      5-min Rain = 0
KPD2 091220Z 26010G16KT 12/M03 A2997 RMK A01 T01181028  RH  036%=      5-min Rain = 0
KPD2 091221Z 26008KT 12/M03 A2997 RMK A01 T01181028  RH  036%=      5-min Rain = 0
KPD2 091222Z 29004KT 12/M03 A2997 RMK A01 T01181028  RH  036%=      5-min Rain = 0
KPD2 091223Z 29004KT 12/M03 A2998 RMK A01 T01181028  RH  036%=      5-min Rain = 0
KPD2 091224Z 22004KT 12/M03 A2998 RMK A01 T01171028  RH  036%=      5-min Rain = 0
KPD2 091225Z 27005KT 12/M03 A2997 RMK A01 T01161029  RH  036%=      5-min Rain = 0
KPD2 091226Z 28004KT 12/M03 A2998 RMK A01 T01151029  RH  037%=      5-min Rain = 0
KPD2 091227Z 23004G11KT 11/M03 A2998 RMK A01 T01141029  RH  037%=      5-min Rain = 0
KPD2 091228Z 25005KT 11/M03 A2997 RMK A01 T01131029  RH  037%=      5-min Rain = 0
KPD2 091229Z 27008KT 11/M03 A2997 RMK A01 T01141028  RH  037%=      5-min Rain = 0
KPD2 091230Z 25006KT 11/M03 A2998 RMK A01 T01141028  RH  037%=      5-min Rain = 0
KPD2 091231Z 27006KT 12/M03 A2998 RMK A01 T01151028  RH  037%=      5-min Rain = 0
KPD2 091232Z 24005KT 12/M03 A2998 RMK A01 T01151028  RH  037%=      5-min Rain = 0
KPD2 091233Z 25007G13KT 12/M03 A2998 RMK A01 T01151028  RH  037%=      5-min Rain = 0
KPD2 091234Z 25008KT 11/M03 A2998 RMK A01 T01141028  RH  037%=      5-min Rain = 0
KPD2 091235Z 25006G12KT 12/M03 A2997 RMK A01 T01151028  RH  037%=      5-min Rain = 0
KPD2 091236Z 22006G12KT 11/M03 A2997 RMK A01 T01141028  RH  037%=      5-min Rain = 0
KPD2 091237Z 24010G17KT 12/M03 A2997 RMK A01 T01151028  RH  037%=      5-min Rain = 0
KPD2 091238Z 24010G17KT 12/M03 A2997 RMK A01 T01161027  RH  037%=      5-min Rain = 0
KPD2 091239Z 23008G14KT 12/M03 A2997 RMK A01 T01171027  RH  037%=      5-min Rain = 0
KPD2 091240Z 23008KT 12/M03 A2997 RMK A01 T01181026  RH  036%=      5-min Rain = 0
KPD2 091241Z 24005G11KT 12/M03 A2997 RMK A01 T01201026  RH  036%=      5-min Rain = 0
KPD2 091242Z 23006G12KT 12/M03 A2997 RMK A01 T01201026  RH  036%=      5-min Rain = 0
KPD2 091243Z 22007G13KT 12/M03 A2996 RMK A01 T01201027  RH  036%=      5-min Rain = 0
KPD2 091244Z 23009G14KT 12/M03 A2996 RMK A01 T01201027  RH  036%=      5-min Rain = 0
KPD2 091245Z 21009G15KT 12/M03 A2996 RMK A01 T01201027  RH  036%=      5-min Rain = 0
KPD2 091246Z 23006KT 12/M03 A2996 RMK A01 T01201027  RH  036%=      5-min Rain = 0
KPD2 091247Z 21011G16KT 12/M03 A2996 RMK A01 T01191027  RH  036%=      5-min Rain = 0
KPD2 091248Z 24012KT 12/M03 A2996 RMK A01 T01201026  RH  036%=      5-min Rain = 0
KPD2 091249Z 23007G15KT 12/M03 A2996 RMK A01 T01221026  RH  036%=      5-min Rain = 0
KPD2 091250Z 20006G12KT 12/M03 A2996 RMK A01 T01231026  RH  035%=      5-min Rain = 0
KPD2 091251Z 24010G17KT 12/M03 A2996 RMK A01 T01231026  RH  035%=      5-min Rain = 0
KPD2 091252Z 22009G19KT 12/M03 A2996 RMK A01 T01221026  RH  035%=      5-min Rain = 0
KPD2 091253Z 23008G15KT 12/M03 A2996 RMK A01 T01221026  RH  035%=      5-min Rain = 0
KPD2 091254Z 21011G17KT 12/M03 A2996 RMK A01 T01231026  RH  035%=      5-min Rain = 0
KPD2 091255Z 22010G15KT 12/M03 A2996 RMK A01 T01231026  RH  035%=      5-min Rain = 0
KPD2 091256Z 20011G19KT 12/M03 A2996 RMK A01 T01221027  RH  035%=      5-min Rain = 0
KPD2 091257Z 21008G13KT 12/M03 A2996 RMK A01 T01221027  RH  035%=      5-min Rain = 0
KPD2 091258Z 21011G16KT 12/M03 A2996 RMK A01 T01211027  RH  036%=      5-min Rain = 0
KPD2 091259Z 21006G13KT 12/M03 A2996 RMK A01 T01201027  RH  036%=      5-min Rain = 0
KPD2 091300Z 23004KT 12/M03 A2996 RMK A01 T01191027  RH  036%=      5-min Rain = 0
KPD2 091301Z 23005KT 12/M03 A2996 RMK A01 T01191027  RH  036%=      5-min Rain = 0
KPD2 091302Z 22008G14KT 12/M03 A2996 RMK A01 T01181027  RH  036%=      5-min Rain = 0
KPD2 091303Z 21006G12KT 12/M03 A2996 RMK A01 T01191027  RH  036%=      5-min Rain = 0
KPD2 091304Z 21007G13KT 12/M03 A2996 RMK A01 T01191027  RH  036%=      5-min Rain = 0
KPD2 091305Z 19008KT 12/M03 A2996 RMK A01 T01181027  RH  036%=      5-min Rain = 0
KPD2 091306Z 21008KT 12/M03 A2996 RMK A01 T01181027  RH  036%=      5-min Rain = 0
KPD2 091307Z 20010KT 12/M03 A2996 RMK A01 T01181027  RH  036%=      5-min Rain = 0
KPD2 091308Z 22007G13KT 12/M03 A2996 RMK A01 T01191027  RH  036%=      5-min Rain = 0
KPD2 091309Z 21009KT 12/M03 A2996 RMK A01 T01191027  RH  036%=      5-min Rain = 0
KPD2 091310Z 19007KT 12/M03 A2996 RMK A01 T01181027  RH  036%=      5-min Rain = 0
KPD2 091311Z 23005KT 12/M03 A2996 RMK A01 T01171027  RH  036%=      5-min Rain = 0
KPD2 091312Z 21003KT 12/M03 A2996 RMK A01 T01161028  RH  037%=      5-min Rain = 0
KPD2 091313Z 23007KT 12/M03 A2996 RMK A01 T01151028  RH  037%=      5-min Rain = 0
KPD2 091314Z 29005KT 12/M03 A2996 RMK A01 T01151027  RH  037%=      5-min Rain = 0
KPD2 091315Z 06003KT 12/M03 A2996 RMK A01 T01161027  RH  037%=      5-min Rain = 0
KPD2 091316Z 36004KT 12/M03 A2996 RMK A01 T01151028  RH  037%=      5-min Rain = 0
KPD2 091317Z 31001KT 11/M03 A2996 RMK A01 T01141028  RH  037%=      5-min Rain = 0
KPD2 091318Z 25002KT 11/M03 A2996 RMK A01 T01131028  RH  037%=      5-min Rain = 0
KPD2 091319Z 28002KT 11/M03 A2996 RMK A01 T01121028  RH  037%=      5-min Rain = 0
KPD2 091320Z 16003KT 11/M03 A2996 RMK A01 T01111028  RH  038%=      5-min Rain = 0
KPD2 091321Z 23006KT 11/M03 A2996 RMK A01 T01111028  RH  038%=      5-min Rain = 0
KPD2 091322Z 22011G17KT 11/M03 A2996 RMK A01 T01131027  RH  038%=      5-min Rain = 0
KPD2 091323Z 23008KT 11/M03 A2996 RMK A01 T01141027  RH  037%=      5-min Rain = 0
KPD2 091324Z 23006KT 11/M03 A2996 RMK A01 T01141027  RH  037%=      5-min Rain = 0
KPD2 091325Z 32005KT 11/M03 A2996 RMK A01 T01141027  RH  037%=      5-min Rain = 0
KPD2 091326Z 22004G10KT 11/M03 A2996 RMK A01 T01141027  RH  037%=      5-min Rain = 0
KPD2 091327Z 22005KT 11/M03 A2996 RMK A01 T01141027  RH  037%=      5-min Rain = 0
KPD2 091328Z 24006KT 11/M03 A2996 RMK A01 T01131028  RH  037%=      5-min Rain = 0
KPD2 091329Z 20005KT 11/M03 A2996 RMK A01 T01121028  RH  037%=      5-min Rain = 0
KPD2 091330Z 22007KT 11/M03 A2996 RMK A01 T01121028  RH  038%=      5-min Rain = 0
KPD2 091331Z 24006KT 11/M03 A2996 RMK A01 T01121027  RH  038%=      5-min Rain = 0
KPD2 091332Z 27002KT 11/M03 A2996 RMK A01 T01121027  RH  038%=      5-min Rain = 0
KPD2 091333Z 25006KT 11/M03 A2996 RMK A01 T01111028  RH  038%=      5-min Rain = 0
KPD2 091334Z 28006KT 11/M03 A2996 RMK A01 T01111027  RH  038%=      5-min Rain = 0
KPD2 091335Z 20005KT 11/M03 A2997 RMK A01 T01101027  RH  038%=      5-min Rain = 0
KPD2 091336Z 24006KT 11/M03 A2997 RMK A01 T01111027  RH  038%=      5-min Rain = 0
KPD2 091337Z 26003KT 11/M03 A2997 RMK A01 T01111027  RH  038%=      5-min Rain = 0
KPD2 091338Z 30004KT 11/M03 A2997 RMK A01 T01101028  RH  038%=      5-min Rain = 0
KPD2 091339Z 31004KT 11/M03 A2997 RMK A01 T01091028  RH  038%=      5-min Rain = 0
KPD2 091340Z 32003KT 11/M03 A2997 RMK A01 T01071029  RH  038%=      5-min Rain = 0
KPD2 091341Z 29003KT 11/M03 A2997 RMK A01 T01051029  RH  039%=      5-min Rain = 0
KPD2 091342Z 30002KT 10/M03 A2997 RMK A01 T01041029  RH  039%=      5-min Rain = 0
KPD2 091343Z 32001KT 10/M03 A2997 RMK A01 T01031029  RH  039%=      5-min Rain = 0
KPD2 091344Z 32002KT 10/M03 A2997 RMK A01 T01031029  RH  039%=      5-min Rain = 0
KPD2 091345Z 25001KT 10/M03 A2997 RMK A01 T01021030  RH  039%=      5-min Rain = 0
KPD2 091346Z 27000KT 10/M03 A2997 RMK A01 T01011030  RH  040%=      5-min Rain = 0
KPD2 091347Z 11000KT 10/M03 A2997 RMK A01 T01011029  RH  040%=      5-min Rain = 0
KPD2 091348Z 14001KT 10/M03 A2997 RMK A01 T01001029  RH  040%=      5-min Rain = 0
KPD2 091349Z 20002KT 10/M03 A2997 RMK A01 T01001029  RH  040%=      5-min Rain = 0
KPD2 091350Z 20004KT 10/M03 A2996 RMK A01 T01001029  RH  040%=      5-min Rain = 0
KPD2 091351Z 30003KT 10/M03 A2996 RMK A01 T01021027  RH  040%=      5-min Rain = 0
KPD2 091352Z 30005KT 10/M03 A2996 RMK A01 T01031027  RH  040%=      5-min Rain = 0
KPD2 091353Z 26004KT 10/M03 A2996 RMK A01 T01041027  RH  040%=      5-min Rain = 0
KPD2 091354Z 30003KT 11/M03 A2996 RMK A01 T01061026  RH  039%=      5-min Rain = 0
KPD2 091355Z 35000KT 11/M03 A2996 RMK A01 T01061027  RH  039%=      5-min Rain = 0
KPD2 091356Z 31001KT 11/M03 A2997 RMK A01 T01051027  RH  039%=      5-min Rain = 0
KPD2 091357Z 02003KT 11/M03 A2996 RMK A01 T01051028  RH  039%=      5-min Rain = 0
KPD2 091358Z 32003KT 10/M03 A2997 RMK A01 T01031028  RH  040%=      5-min Rain = 0
KPD2 091359Z 32001KT 10/M03 A2997 RMK A01 T01011028  RH  040%=      5-min Rain = 0
KPD2 091400Z 08000KT 10/M03 A2997 RMK A01 T01011028  RH  040%=      5-min Rain = 0
KPD2 091401Z 19001KT 10/M03 A2997 RMK A01 T01001028  RH  040%=      5-min Rain = 0
KPD2 091402Z 15003KT 10/M03 A2997 RMK A01 T01011028  RH  041%=      5-min Rain = 0
KPD2 091403Z 11001KT 10/M03 A2997 RMK A01 T01021027  RH  040%=      5-min Rain = 0
KPD2 091404Z 10001KT 10/M03 A2997 RMK A01 T01031027  RH  040%=      5-min Rain = 0
KPD2 091405Z 27002G7KT 10/M03 A2996 RMK A01 T01041027  RH  040%=      5-min Rain = 0
KPD2 091406Z 23005KT 10/M03 A2997 RMK A01 T01041027  RH  040%=      5-min Rain = 0
KPD2 091407Z 27004KT 10/M03 A2997 RMK A01 T01041027  RH  040%=      5-min Rain = 0
KPD2 091408Z 23003KT 11/M03 A2997 RMK A01 T01051027  RH  040%=      5-min Rain = 0
KPD2 091409Z 25002KT 11/M03 A2997 RMK A01 T01051027  RH  040%=      5-min Rain = 0
KPD2 091410Z 24003KT 11/M03 A2997 RMK A01 T01051027  RH  040%=      5-min Rain = 0
KPD2 091411Z 24005KT 11/M03 A2997 RMK A01 T01051026  RH  040%=      5-min Rain = 0
KPD2 091412Z 23005G11KT 11/M03 A2997 RMK A01 T01061026  RH  040%=      5-min Rain = 0
KPD2 091413Z 22008G13KT 11/M03 A2997 RMK A01 T01071026  RH  039%=      5-min Rain = 0
KPD2 091414Z 22002KT 11/M03 A2997 RMK A01 T01081026  RH  039%=      5-min Rain = 0
KPD2 091415Z 28000KT 11/M03 A2997 RMK A01 T01081026  RH  039%=      5-min Rain = 0
KPD2 091416Z 28002KT 11/M03 A2997 RMK A01 T01081026  RH  039%=      5-min Rain = 0
KPD2 091417Z 28003KT 11/M03 A2997 RMK A01 T01061027  RH  039%=      5-min Rain = 0
KPD2 091418Z 27004KT 11/M03 A2997 RMK A01 T01061027  RH  039%=      5-min Rain = 0
KPD2 091419Z 28006KT 11/M03 A2997 RMK A01 T01061027  RH  039%=      5-min Rain = 0
KPD2 091420Z 28005KT 11/M03 A2997 RMK A01 T01071026  RH  039%=      5-min Rain = 0
KPD2 091421Z 34003KT 11/M03 A2996 RMK A01 T01081027  RH  039%=      5-min Rain = 0
KPD2 091422Z 24002KT 11/M03 A2996 RMK A01 T01081026  RH  039%=      5-min Rain = 0
KPD2 091423Z 21002G8KT 11/M03 A2996 RMK A01 T01081026  RH  039%=      5-min Rain = 0
KPD2 091424Z 21007KT 11/M03 A2996 RMK A01 T01081027  RH  039%=      5-min Rain = 0
KPD2 091425Z 28007KT 11/M03 A2996 RMK A01 T01081027  RH  039%=      5-min Rain = 0
KPD2 091426Z 30006KT 11/M03 A2996 RMK A01 T01081026  RH  039%=      5-min Rain = 0
KPD2 091427Z 22003KT 11/M03 A2996 RMK A01 T01091026  RH  039%=      5-min Rain = 0
KPD2 091428Z 15002KT 11/M03 A2996 RMK A01 T01101026  RH  038%=      5-min Rain = 0
KPD2 091429Z 20003KT 11/M03 A2996 RMK A01 T01101027  RH  038%=      5-min Rain = 0
KPD2 091430Z 26004KT 11/M03 A2996 RMK A01 T01101027  RH  038%=      5-min Rain = 0
KPD2 091431Z 22006KT 11/M03 A2996 RMK A01 T01101027  RH  038%=      5-min Rain = 0
KPD2 091432Z 22006KT 11/M03 A2996 RMK A01 T01101027  RH  038%=      5-min Rain = 0
KPD2 091433Z 23005KT 11/M03 A2996 RMK A01 T01111026  RH  038%=      5-min Rain = 0
KPD2 091434Z 28007KT 11/M03 A2996 RMK A01 T01111027  RH  038%=      5-min Rain = 0
KPD2 091435Z 28004KT 11/M03 A2996 RMK A01 T01111027  RH  038%=      5-min Rain = 0
KPD2 091436Z 23003KT 11/M03 A2996 RMK A01 T01111027  RH  038%=      5-min Rain = 0
KPD2 091437Z 31002KT 11/M03 A2996 RMK A01 T01111027  RH  038%=      5-min Rain = 0
KPD2 091438Z 24003KT 11/M03 A2996 RMK A01 T01121027  RH  038%=      5-min Rain = 0
KPD2 091439Z 26004KT 11/M03 A2996 RMK A01 T01121027  RH  038%=      5-min Rain = 0
KPD2 091440Z 24003KT 11/M03 A2997 RMK A01 T01121027  RH  038%=      5-min Rain = 0
KPD2 091441Z 25001KT 11/M03 A2997 RMK A01 T01121027  RH  038%=      5-min Rain = 0
KPD2 091442Z 11001KT 11/M03 A2996 RMK A01 T01121026  RH  038%=      5-min Rain = 0
KPD2 091443Z 16001KT 11/M03 A2997 RMK A01 T01131026  RH  038%=      5-min Rain = 0
KPD2 091444Z 15001KT 11/M03 A2997 RMK A01 T01141026  RH  038%=      5-min Rain = 0
KPD2 091445Z 15002KT 11/M03 A2997 RMK A01 T01141026  RH  037%=      5-min Rain = 0
KPD2 091446Z 27001KT 12/M03 A2997 RMK A01 T01151026  RH  037%=      5-min Rain = 0
KPD2 091447Z 23007KT 12/M03 A2997 RMK A01 T01161025  RH  037%=      5-min Rain = 0
KPD2 091448Z 21004KT 12/M03 A2997 RMK A01 T01151026  RH  037%=      5-min Rain = 0
KPD2 091449Z 17004KT 12/M03 A2996 RMK A01 T01151026  RH  037%=      5-min Rain = 0
KPD2 091450Z 18004KT 12/M03 A2996 RMK A01 T01161026  RH  037%=      5-min Rain = 0
KPD2 091451Z 19003KT 12/M03 A2996 RMK A01 T01161026  RH  037%=      5-min Rain = 0
KPD2 091452Z 19004KT 12/M03 A2997 RMK A01 T01161025  RH  037%=      5-min Rain = 0
KPD2 091453Z 21002KT 12/M03 A2997 RMK A01 T01171025  RH  037%=      5-min Rain = 0
KPD2 091454Z 19003G8KT 12/M03 A2997 RMK A01 T01181025  RH  037%=      5-min Rain = 0
KPD2 091455Z 21006KT 12/M03 A2997 RMK A01 T01191025  RH  037%=      5-min Rain = 0
KPD2 091456Z 26003KT 12/M03 A2997 RMK A01 T01191025  RH  037%=      5-min Rain = 0
KPD2 091457Z 34002KT 12/M03 A2997 RMK A01 T01191025  RH  037%=      5-min Rain = 0
KPD2 091458Z 09001KT 12/M03 A2997 RMK A01 T01201025  RH  036%=      5-min Rain = 0
KPD2 091459Z 02001KT 12/M02 A2997 RMK A01 T01201024  RH  036%=      5-min Rain = 0
KPD2 091500Z 10002KT 12/M02 A2997 RMK A01 T01211024  RH  036%=      5-min Rain = 0
KPD2 091501Z 15002KT 12/M02 A2997 RMK A01 T01221024  RH  036%=      5-min Rain = 0
KPD2 091502Z 15003KT 12/M02 A2997 RMK A01 T01231024  RH  036%=      5-min Rain = 0
KPD2 091503Z 11004KT 12/M02 A2997 RMK A01 T01231024  RH  036%=      5-min Rain = 0
KPD2 091504Z 14002KT 12/M02 A2997 RMK A01 T01231024  RH  036%=      5-min Rain = 0
KPD2 091505Z 13001KT 12/M02 A2997 RMK A01 T01231024  RH  036%=      5-min Rain = 0
KPD2 091506Z 07001KT 12/M02 A2997 RMK A01 T01231024  RH  036%=      5-min Rain = 0
KPD2 091507Z 13002KT 12/M02 A2996 RMK A01 T01241023  RH  036%=      5-min Rain = 0
KPD2 091508Z 22005KT 12/M02 A2996 RMK A01 T01241023  RH  036%=      5-min Rain = 0
KPD2 091509Z 25004G9KT 12/M02 A2997 RMK A01 T01241024  RH  036%=      5-min Rain = 0
KPD2 091510Z 19005KT 12/M03 A2997 RMK A01 T01241025  RH  036%=      5-min Rain = 0
KPD2 091511Z 15004KT 12/M02 A2997 RMK A01 T01231024  RH  036%=      5-min Rain = 0
KPD2 091512Z 18001KT 12/M02 A2997 RMK A01 T01231024  RH  036%=      5-min Rain = 0
KPD2 091513Z 25006KT 12/M02 A2997 RMK A01 T01231024  RH  036%=      5-min Rain = 0
KPD2 091514Z 23006KT 12/M03 A2997 RMK A01 T01231025  RH  036%=      5-min Rain = 0
KPD2 091515Z 21003KT 12/M02 A2997 RMK A01 T01221024  RH  036%=      5-min Rain = 0
KPD2 091516Z 17004KT 12/M02 A2997 RMK A01 T01221024  RH  036%=      5-min Rain = 0
KPD2 091517Z 22004KT 12/M02 A2997 RMK A01 T01221024  RH  036%=      5-min Rain = 0
KPD2 091518Z 31003KT 12/M02 A2997 RMK A01 T01221023  RH  036%=      5-min Rain = 0
KPD2 091519Z 26006KT 12/M02 A2997 RMK A01 T01231023  RH  036%=      5-min Rain = 0
KPD2 091520Z 22005KT 12/M02 A2997 RMK A01 T01231023  RH  036%=      5-min Rain = 0
KPD2 091521Z 17003KT 12/M02 A2997 RMK A01 T01241022  RH  036%=      5-min Rain = 0
KPD2 091522Z 20003KT 13/M02 A2997 RMK A01 T01251022  RH  036%=      5-min Rain = 0
KPD2 091523Z 25002KT 13/M02 A2997 RMK A01 T01261023  RH  036%=      5-min Rain = 0
KPD2 091524Z 29003KT 13/M02 A2997 RMK A01 T01261023  RH  035%=      5-min Rain = 0
KPD2 091525Z 27004KT 13/M02 A2997 RMK A01 T01271023  RH  035%=      5-min Rain = 0
KPD2 091526Z 23003KT 13/M02 A2997 RMK A01 T01271023  RH  035%=      5-min Rain = 0
KPD2 091527Z 17002KT 13/M02 A2997 RMK A01 T01271022  RH  035%=      5-min Rain = 0
KPD2 091528Z 24004KT 13/M02 A2998 RMK A01 T01271023  RH  035%=      5-min Rain = 0
KPD2 091529Z 24003KT 13/M02 A2998 RMK A01 T01281022  RH  035%=      5-min Rain = 0
KPD2 091530Z 22002KT 13/M02 A2998 RMK A01 T01281022  RH  035%=      5-min Rain = 0
KPD2 091531Z 23005KT 13/M02 A2998 RMK A01 T01291021  RH  035%=      5-min Rain = 0
KPD2 091532Z 23005KT 13/M02 A2998 RMK A01 T01291022  RH  035%=      5-min Rain = 0
KPD2 091533Z 19005KT 13/M02 A2997 RMK A01 T01291022  RH  035%=      5-min Rain = 0
KPD2 091534Z 18002KT 13/M02 A2997 RMK A01 T01291023  RH  035%=      5-min Rain = 0
KPD2 091535Z 22003KT 13/M02 A2997 RMK A01 T01281023  RH  035%=      5-min Rain = 0
KPD2 091536Z 21002KT 13/M02 A2997 RMK A01 T01281022  RH  035%=      5-min Rain = 0
KPD2 091537Z 26003KT 13/M02 A2997 RMK A01 T01291021  RH  035%=      5-min Rain = 0
KPD2 091538Z 32001KT 13/M02 A2997 RMK A01 T01301022  RH  035%=      5-min Rain = 0
KPD2 091539Z 32002KT 13/M02 A2997 RMK A01 T01311022  RH  035%=      5-min Rain = 0
KPD2 091540Z 19002KT 13/M02 A2997 RMK A01 T01311022  RH  034%=      5-min Rain = 0
KPD2 091541Z 23003KT 13/M02 A2997 RMK A01 T01311023  RH  034%=      5-min Rain = 0
KPD2 091542Z 21002KT 13/M02 A2997 RMK A01 T01311023  RH  034%=      5-min Rain = 0
KPD2 091543Z 25007KT 13/M02 A2997 RMK A01 T01311022  RH  035%=      5-min Rain = 0
KPD2 091544Z 25006KT 13/M02 A2997 RMK A01 T01321021  RH  035%=      5-min Rain = 0
KPD2 091545Z 24004KT 13/M02 A2997 RMK A01 T01331021  RH  034%=      5-min Rain = 0
KPD2 091546Z 22006KT 13/M02 A2996 RMK A01 T01341021  RH  034%=      5-min Rain = 0
KPD2 091547Z 22005KT 14/M02 A2996 RMK A01 T01351021  RH  034%=      5-min Rain = 0
KPD2 091548Z 23006KT 14/M02 A2996 RMK A01 T01351021  RH  034%=      5-min Rain = 0
KPD2 091549Z 24004KT 14/M02 A2996 RMK A01 T01351021  RH  034%=      5-min Rain = 0
KPD2 091550Z 26003KT 14/M02 A2996 RMK A01 T01351021  RH  034%=      5-min Rain = 0
KPD2 091551Z 26004KT 14/M02 A2996 RMK A01 T01351021  RH  034%=      5-min Rain = 0
KPD2 091552Z 20002KT 14/M02 A2996 RMK A01 T01351021  RH  034%=      5-min Rain = 0
KPD2 091553Z 30002KT 13/M02 A2996 RMK A01 T01341022  RH  034%=      5-min Rain = 0
KPD2 091554Z 27003KT 14/M02 A2996 RMK A01 T01351021  RH  034%=      5-min Rain = 0
KPD2 091555Z 25004KT 14/M02 A2996 RMK A01 T01351021  RH  034%=      5-min Rain = 0
KPD2 091556Z 28002KT 14/M02 A2995 RMK A01 T01361021  RH  034%=      5-min Rain = 0
KPD2 091557Z 25001KT 14/M02 A2995 RMK A01 T01361021  RH  034%=      5-min Rain = 0
KPD2 091558Z 20005KT 14/M02 A2995 RMK A01 T01361020  RH  034%=      5-min Rain = 0
KPD2 091559Z 21005KT 14/M02 A2995 RMK A01 T01361020  RH  034%=      5-min Rain = 0
KPD2 091600Z 28002KT 14/M02 A2996 RMK A01 T01361021  RH  034%=      5-min Rain = 0
KPD2 091601Z 23001KT 14/M02 A2996 RMK A01 T01361021  RH  034%=      5-min Rain = 0
KPD2 091602Z 31002KT 14/M02 A2996 RMK A01 T01361021  RH  034%=      5-min Rain = 0
KPD2 091603Z 31003KT 14/M02 A2996 RMK A01 T01361021  RH  034%=      5-min Rain = 0
KPD2 091604Z 27004KT 14/M02 A2996 RMK A01 T01361020  RH  034%=      5-min Rain = 0
KPD2 091605Z 26003KT 14/M02 A2996 RMK A01 T01361020  RH  034%=      5-min Rain = 0
KPD2 091606Z 24003KT 14/M02 A2996 RMK A01 T01361020  RH  034%=      5-min Rain = 0
KPD2 091607Z 24002KT 14/M02 A2996 RMK A01 T01361020  RH  034%=      5-min Rain = 0
KPD2 091608Z 35001KT 14/M02 A2996 RMK A01 T01371019  RH  034%=      5-min Rain = 0
KPD2 091609Z 34002KT 14/M02 A2996 RMK A01 T01381019  RH  034%=      5-min Rain = 0
KPD2 091610Z 30002KT 14/M02 A2996 RMK A01 T01411018  RH  034%=      5-min Rain = 0
KPD2 091611Z 27001KT 14/M02 A2996 RMK A01 T01421018  RH  033%=      5-min Rain = 0
KPD2 091612Z 00000KT 14/M02 A2996 RMK A01 T01431018  RH  033%=      5-min Rain = 0
KPD2 091613Z 23000KT 15/M02 A2996 RMK A01 T01451017  RH  033%=      5-min Rain = 0
KPD2 091614Z 17000KT 15/M02 A2996 RMK A01 T01461018  RH  032%=      5-min Rain = 0
KPD2 091615Z 16001KT 15/M02 A2996 RMK A01 T01461018  RH  032%=      5-min Rain = 0
KPD2 091616Z 12001KT 15/M02 A2996 RMK A01 T01471018  RH  032%=      5-min Rain = 0
KPD2 091617Z 15002KT 15/M02 A2996 RMK A01 T01481018  RH  032%=      5-min Rain = 0
KPD2 091618Z 26004KT 15/M02 A2995 RMK A01 T01491018  RH  032%=      5-min Rain = 0
KPD2 091619Z 21003KT 15/M02 A2995 RMK A01 T01491019  RH  032%=      5-min Rain = 0
KPD2 091620Z 15003KT 15/M02 A2995 RMK A01 T01501018  RH  032%=      5-min Rain = 0
KPD2 091621Z 11004KT 15/M02 A2995 RMK A01 T01501019  RH  031%=      5-min Rain = 0
KPD2 091622Z 14003KT 15/M02 A2995 RMK A01 T01501018  RH  031%=      5-min Rain = 0
KPD2 091623Z 17004KT 15/M02 A2995 RMK A01 T01511018  RH  031%=      5-min Rain = 0
KPD2 091624Z 18002KT 15/M02 A2995 RMK A01 T01521018  RH  031%=      5-min Rain = 0
KPD2 091625Z 13004KT 15/M02 A2995 RMK A01 T01541017  RH  031%=      5-min Rain = 0
KPD2 091626Z 18003KT 16/M02 A2995 RMK A01 T01551017  RH  031%=      5-min Rain = 0
KPD2 091627Z 19003KT 16/M02 A2995 RMK A01 T01571017  RH  030%=      5-min Rain = 0
KPD2 091628Z 33001KT 16/M02 A2995 RMK A01 T01571017  RH  030%=      5-min Rain = 0
KPD2 091629Z 28002KT 16/M02 A2995 RMK A01 T01581018  RH  030%=      5-min Rain = 0
KPD2 091630Z 21001KT 16/M02 A2995 RMK A01 T01581018  RH  030%=      5-min Rain = 0
KPD2 091631Z 19002KT 16/M02 A2995 RMK A01 T01581017  RH  030%=      5-min Rain = 0
KPD2 091632Z 11000KT 16/M02 A2995 RMK A01 T01581017  RH  030%=      5-min Rain = 0
KPD2 091633Z 08001KT 16/M02 A2995 RMK A01 T01591017  RH  030%=      5-min Rain = 0
KPD2 091634Z 09001KT 16/M02 A2995 RMK A01 T01601016  RH  030%=      5-min Rain = 0
KPD2 091635Z 22002KT 16/M02 A2995 RMK A01 T01611015  RH  030%=      5-min Rain = 0
KPD2 091636Z 19001KT 16/M02 A2995 RMK A01 T01621016  RH  030%=      5-min Rain = 0
KPD2 091637Z 33002KT 16/M02 A2995 RMK A01 T01611017  RH  030%=      5-min Rain = 0
KPD2 091638Z 33003KT 16/M02 A2995 RMK A01 T01611016  RH  030%=      5-min Rain = 0
KPD2 091639Z 33001KT 16/M02 A2994 RMK A01 T01631016  RH  030%=      5-min Rain = 0
KPD2 091640Z 14001KT 16/M02 A2994 RMK A01 T01641015  RH  029%=      5-min Rain = 0
KPD2 091641Z 19002KT 16/M02 A2994 RMK A01 T01641016  RH  029%=      5-min Rain = 0
KPD2 091642Z 23003KT 17/M02 A2995 RMK A01 T01651015  RH  029%=      5-min Rain = 0
KPD2 091643Z 19002KT 17/M02 A2995 RMK A01 T01661016  RH  029%=      5-min Rain = 0
KPD2 091644Z 19002KT 17/M02 A2995 RMK A01 T01661016  RH  029%=      5-min Rain = 0
KPD2 091645Z 20005KT 17/M02 A2995 RMK A01 T01651016  RH  029%=      5-min Rain = 0
KPD2 091646Z 19005KT 17/M02 A2995 RMK A01 T01651016  RH  029%=      5-min Rain = 0
KPD2 091647Z 21004KT 16/M02 A2994 RMK A01 T01641016  RH  029%=      5-min Rain = 0
KPD2 091648Z 25004KT 16/M02 A2994 RMK A01 T01631016  RH  029%=      5-min Rain = 0
KPD2 091649Z 25004KT 16/M02 A2994 RMK A01 T01631017  RH  029%=      5-min Rain = 0
KPD2 091650Z 23003KT 17/M02 A2994 RMK A01 T01651015  RH  029%=      5-min Rain = 0
KPD2 091651Z 20004KT 17/M01 A2994 RMK A01 T01671014  RH  029%=      5-min Rain = 0
KPD2 091652Z 21005KT 17/M02 A2994 RMK A01 T01681016  RH  028%=      5-min Rain = 0
KPD2 091653Z 21003KT 17/M02 A2994 RMK A01 T01671017  RH  028%=      5-min Rain = 0
KPD2 091654Z 19002KT 17/M02 A2994 RMK A01 T01661017  RH  029%=      5-min Rain = 0
KPD2 091655Z 21004KT 17/M02 A2994 RMK A01 T01661016  RH  029%=      5-min Rain = 0
KPD2 091656Z 22004KT 17/M02 A2994 RMK A01 T01681015  RH  029%=      5-min Rain = 0
KPD2 091657Z 21004KT 17/M02 A2994 RMK A01 T01691016  RH  028%=      5-min Rain = 0
KPD2 091658Z 20002KT 17/M02 A2994 RMK A01 T01701016  RH  028%=      5-min Rain = 0
KPD2 091659Z 20004KT 17/M02 A2994 RMK A01 T01691015  RH  028%=      5-min Rain = 0
KPD2 091700Z 24001KT 17/M01 A2994 RMK A01 T01711014  RH  028%=      5-min Rain = 0
KPD2 091701Z 31001KT 17/M02 A2994 RMK A01 T01731015  RH  028%=      5-min Rain = 0
KPD2 091702Z 30000KT 17/M02 A2994 RMK A01 T01731016  RH  028%=      5-min Rain = 0
KPD2 091703Z 33002KT 17/M02 A2994 RMK A01 T01731016  RH  028%=      5-min Rain = 0
KPD2 091704Z 30001KT 18/M02 A2994 RMK A01 T01751016  RH  027%=      5-min Rain = 0
KPD2 091705Z 29002KT 18/M02 A2994 RMK A01 T01751015  RH  027%=      5-min Rain = 0
KPD2 091706Z 21001KT 18/M01 A2994 RMK A01 T01771014  RH  027%=      5-min Rain = 0
KPD2 091707Z 23002KT 18/M01 A2994 RMK A01 T01791014  RH  027%=      5-min Rain = 0
KPD2 091708Z 20004KT 18/M01 A2994 RMK A01 T01801013  RH  027%=      5-min Rain = 0
KPD2 091709Z 20004KT 18/M02 A2993 RMK A01 T01811016  RH  026%=      5-min Rain = 0
KPD2 091710Z 24004KT 18/M02 A2993 RMK A01 T01791016  RH  027%=      5-min Rain = 0
KPD2 091711Z 23004KT 18/M02 A2993 RMK A01 T01781016  RH  027%=      5-min Rain = 0
KPD2 091712Z 21002KT 18/M02 A2993 RMK A01 T01791017  RH  026%=      5-min Rain = 0
KPD2 091713Z 22003KT 18/M02 A2993 RMK A01 T01801016  RH  026%=      5-min Rain = 0
KPD2 091714Z 23003KT 18/M02 A2993 RMK A01 T01821015  RH  026%=      5-min Rain = 0
KPD2 091715Z 27002KT 18/M02 A2993 RMK A01 T01841016  RH  026%=      5-min Rain = 0
KPD2 091716Z 25001KT 19/M02 A2994 RMK A01 T01851017  RH  025%=      5-min Rain = 0
KPD2 091717Z 31004KT 19/M02 A2994 RMK A01 T01861017  RH  025%=      5-min Rain = 0
KPD2 091718Z 26003KT 19/M02 A2994 RMK A01 T01881016  RH  025%=      5-min Rain = 0
KPD2 091719Z 27002KT 19/M01 A2994 RMK A01 T01901014  RH  025%=      5-min Rain = 0
KPD2 091720Z 28004KT 19/M02 A2994 RMK A01 T01921015  RH  025%=      5-min Rain = 0
KPD2 091721Z 26001KT 19/M02 A2993 RMK A01 T01921019  RH  024%=      5-min Rain = 0
KPD2 091722Z 26002KT 19/M02 A2993 RMK A01 T01911019  RH  024%=      5-min Rain = 0
KPD2 091723Z 26006KT 19/M02 A2993 RMK A01 T01921017  RH  024%=      5-min Rain = 0
KPD2 091724Z 28004KT 19/M02 A2993 RMK A01 T01931019  RH  024%=      5-min Rain = 0
KPD2 091725Z 29006KT 19/M02 A2993 RMK A01 T01931019  RH  024%=      5-min Rain = 0
KPD2 091726Z 28007KT 19/M02 A2993 RMK A01 T01931020  RH  024%=      5-min Rain = 0
KPD2 091727Z 28005KT 19/M02 A2993 RMK A01 T01931020  RH  024%=      5-min Rain = 0
KPD2 091728Z 30005KT 20/M02 A2993 RMK A01 T01951020  RH  023%=      5-min Rain = 0
KPD2 091729Z 32004KT 20/M02 A2992 RMK A01 T01951020  RH  023%=      5-min Rain = 0
KPD2 091730Z 30003KT 20/M02 A2992 RMK A01 T01951020  RH  023%=      5-min Rain = 0
KPD2 091731Z 25002KT 20/M02 A2992 RMK A01 T01961019  RH  023%=      5-min Rain = 0
KPD2 091732Z 28002KT 20/M02 A2992 RMK A01 T01971019  RH  023%=      5-min Rain = 0
KPD2 091733Z 31005KT 20/M02 A2992 RMK A01 T01971019  RH  023%=      5-min Rain = 0
KPD2 091734Z 29003KT 20/M02 A2992 RMK A01 T01971020  RH  023%=      5-min Rain = 0
KPD2 091735Z 31004KT 20/M02 A2992 RMK A01 T01971020  RH  023%=      5-min Rain = 0
KPD2 091736Z 28002KT 20/M02 A2992 RMK A01 T01971021  RH  023%=      5-min Rain = 0
KPD2 091737Z 24003KT 20/M02 A2992 RMK A01 T01971021  RH  023%=      5-min Rain = 0
KPD2 091738Z 25004KT 20/M02 A2992 RMK A01 T01981019  RH  023%=      5-min Rain = 0
KPD2 091739Z 28002KT 20/M02 A2991 RMK A01 T01991019  RH  023%=      5-min Rain = 0
KPD2 091740Z 27002KT 20/M02 A2991 RMK A01 T02011018  RH  023%=      5-min Rain = 0
KPD2 091741Z 22001KT 20/M02 A2991 RMK A01 T02041019  RH  022%=      5-min Rain = 0
KPD2 091742Z 27003KT 21/M02 A2991 RMK A01 T02061018  RH  022%=      5-min Rain = 0
KPD2 091743Z 31004KT 21/M02 A2991 RMK A01 T02071018  RH  022%=      5-min Rain = 0
KPD2 091744Z 30003KT 21/M02 A2991 RMK A01 T02081019  RH  022%=      5-min Rain = 0
KPD2 091745Z 29005KT 21/M02 A299 RMK A01 T02081020  RH  022%=      5-min Rain = 0
KPD2 091746Z 27003KT 21/M02 A299 RMK A01 T02081020  RH  022%=      5-min Rain = 0
KPD2 091747Z 27003KT 21/M02 A299 RMK A01 T02081019  RH  022%=      5-min Rain = 0
KPD2 091748Z 29003KT 21/M02 A299 RMK A01 T02091019  RH  022%=      5-min Rain = 0
KPD2 091749Z 27003KT 21/M02 A299 RMK A01 T02081019  RH  022%=      5-min Rain = 0
KPD2 091750Z 26004KT 21/M02 A299 RMK A01 T02101018  RH  022%=      5-min Rain = 0
KPD2 091751Z 24005KT 21/M02 A299 RMK A01 T02121018  RH  021%=      5-min Rain = 0
KPD2 091752Z 19002KT 21/M02 A299 RMK A01 T02131020  RH  021%=      5-min Rain = 0
KPD2 091753Z 21004KT 21/M02 A299 RMK A01 T02131020  RH  021%=      5-min Rain = 0
KPD2 091754Z 22004KT 21/M02 A299 RMK A01 T02141017  RH  021%=      5-min Rain = 0
KPD2 091755Z 21005KT 22/M02 A299 RMK A01 T02161017  RH  021%=      5-min Rain = 0
KPD2 091756Z 24003KT 22/M02 A299 RMK A01 T02171018  RH  021%=      5-min Rain = 0
KPD2 091757Z 28001KT 22/M02 A299 RMK A01 T02191019  RH  020%=      5-min Rain = 0
KPD2 091758Z 22002KT 22/M02 A299 RMK A01 T02191019  RH  020%=      5-min Rain = 0
KPD2 091759Z 18005KT 22/M02 A299 RMK A01 T02201018  RH  020%=      5-min Rain = 0
KPD2 091800Z 19003KT 22/M02 A2989 RMK A01 T02191019  RH  020%=      5-min Rain = 0
KPD2 091801Z 21004KT 22/M02 A2989 RMK A01 T02181018  RH  021%=      5-min Rain = 0
KPD2 091802Z 20004KT 22/M02 A2989 RMK A01 T02181017  RH  021%=      5-min Rain = 0
KPD2 091803Z 21003KT 22/M02 A2989 RMK A01 T02181016  RH  021%=      5-min Rain = 0
KPD2 091804Z 20004KT 22/M02 A2989 RMK A01 T02191016  RH  021%=      5-min Rain = 0
KPD2 091805Z 18004KT 22/M02 A2989 RMK A01 T02201017  RH  021%=      5-min Rain = 0
KPD2 091806Z 19006KT 22/M02 A2989 RMK A01 T02191016  RH  021%=      5-min Rain = 0
KPD2 091807Z 19008KT 22/M02 A2989 RMK A01 T02181015  RH  021%=      5-min Rain = 0
KPD2 091808Z 25005KT 22/M02 A2989 RMK A01 T02191015  RH  021%=      5-min Rain = 0
KPD2 091809Z 22003KT 22/M01 A2989 RMK A01 T02211014  RH  021%=      5-min Rain = 0
KPD2 091810Z 22002KT 22/M01 A2989 RMK A01 T02231012  RH  021%=      5-min Rain = 0
KPD2 091811Z 26002KT 23/M01 A2989 RMK A01 T02251012  RH  021%=      5-min Rain = 0
KPD2 091812Z 25002KT 23/M01 A2989 RMK A01 T02271010  RH  021%=      5-min Rain = 0
KPD2 091813Z 24002KT 23/M01 A2989 RMK A01 T02291010  RH  020%=      5-min Rain = 0
KPD2 091814Z 22007KT 23/M01 A2988 RMK A01 T02291011  RH  020%=      5-min Rain = 0
KPD2 091815Z 21008KT 23/M01 A2988 RMK A01 T02281010  RH  020%=      5-min Rain = 0
KPD2 091816Z 22006KT 23/M01 A2988 RMK A01 T02271009  RH  021%=      5-min Rain = 0
KPD2 091817Z 22005KT 23/M01 A2988 RMK A01 T02261009  RH  021%=      5-min Rain = 0
KPD2 091818Z 22005KT 23/M01 A2988 RMK A01 T02261009  RH  021%=      5-min Rain = 0
KPD2 091819Z 19003KT 23/M01 A2988 RMK A01 T02261008  RH  021%=      5-min Rain = 0
KPD2 091820Z 21005KT 23/M01 A2988 RMK A01 T02261008  RH  021%=      5-min Rain = 0
KPD2 091821Z 20004KT 23/M01 A2988 RMK A01 T02261008  RH  021%=      5-min Rain = 0
KPD2 091822Z 23003KT 23/M01 A2988 RMK A01 T02251008  RH  021%=      5-min Rain = 0
KPD2 091823Z 24003KT 22/M01 A2988 RMK A01 T02241008  RH  021%=      5-min Rain = 0
KPD2 091824Z 24003KT 23/M01 A2987 RMK A01 T02251008  RH  021%=      5-min Rain = 0
KPD2 091825Z 21003KT 23/M01 A2987 RMK A01 T02261007  RH  021%=      5-min Rain = 0
KPD2 091826Z 18004KT 23/M01 A2987 RMK A01 T02281006  RH  021%=      5-min Rain = 0
KPD2 091827Z 19007KT 23/M01 A2987 RMK A01 T02291007  RH  021%=      5-min Rain = 0
KPD2 091828Z 20007KT 23/M01 A2987 RMK A01 T02291007  RH  021%=      5-min Rain = 0
KPD2 091829Z 20004KT 23/M01 A2987 RMK A01 T02281007  RH  021%=      5-min Rain = 0
KPD2 091830Z 22004KT 23/M01 A2987 RMK A01 T02291005  RH  021%=      5-min Rain = 0
KPD2 091831Z 21003KT 23/M00 A2987 RMK A01 T02311004  RH  021%=      5-min Rain = 0
KPD2 091832Z 23005KT 24/M00 A2987 RMK A01 T02351003  RH  021%=      5-min Rain = 0
KPD2 091833Z 24003KT 24/M01 A2987 RMK A01 T02371005  RH  020%=      5-min Rain = 0
KPD2 091834Z 23003KT 24/M00 A2987 RMK A01 T02391004  RH  020%=      5-min Rain = 0
KPD2 091835Z 24004KT 24/M00 A2987 RMK A01 T02411004  RH  020%=      5-min Rain = 0
KPD2 091836Z 23004KT 24/M00 A2986 RMK A01 T02441003  RH  020%=      5-min Rain = 0
KPD2 091837Z 26004KT 25/M00 A2986 RMK A01 T02471003  RH  019%=      5-min Rain = 0
KPD2 091838Z 27006KT 25/M01 A2986 RMK A01 T02501007  RH  018%=      5-min Rain = 0
KPD2 091839Z 25007KT 25/M01 A2986 RMK A01 T02501008  RH  018%=      5-min Rain = 0
KPD2 091840Z 23007KT 25/M01 A2986 RMK A01 T02491009  RH  018%=      5-min Rain = 0
KPD2 091841Z 25005KT 25/M01 A2986 RMK A01 T02491009  RH  018%=      5-min Rain = 0
KPD2 091842Z 28006KT 25/M01 A2986 RMK A01 T02481010  RH  018%=      5-min Rain = 0
KPD2 091843Z 29004KT 25/M01 A2986 RMK A01 T02461011  RH  018%=      5-min Rain = 0
KPD2 091844Z 30004KT 25/M01 A2986 RMK A01 T02461010  RH  018%=      5-min Rain = 0
KPD2 091845Z 28006KT 25/M01 A2985 RMK A01 T02481009  RH  018%=      5-min Rain = 0
KPD2 091846Z 28006KT 25/M01 A2985 RMK A01 T02491011  RH  018%=      5-min Rain = 0
KPD2 091847Z 27007KT 25/M01 A2985 RMK A01 T02481011  RH  018%=      5-min Rain = 0
KPD2 091848Z 29008KT 25/M01 A2985 RMK A01 T02471010  RH  018%=      5-min Rain = 0
KPD2 091849Z 32008KT 25/M01 A2985 RMK A01 T02491009  RH  018%=      5-min Rain = 0
KPD2 091850Z 29009KT 25/M01 A2985 RMK A01 T02511008  RH  018%=      5-min Rain = 0
KPD2 091851Z 31006G11KT 25/M01 A2985 RMK A01 T02511010  RH  018%=      5-min Rain = 0
KPD2 091852Z 31008KT 25/M01 A2985 RMK A01 T02511009  RH  018%=      5-min Rain = 0
KPD2 091853Z 31011KT 25/M01 A2985 RMK A01 T02521009  RH  018%=      5-min Rain = 0
KPD2 091854Z 30010KT 25/M01 A2985 RMK A01 T02521010  RH  018%=      5-min Rain = 0
KPD2 091855Z 30008KT 25/M01 A2985 RMK A01 T02521009  RH  018%=      5-min Rain = 0
KPD2 091856Z 29007KT 25/M01 A2985 RMK A01 T02521010  RH  018%=      5-min Rain = 0
KPD2 091857Z 29006KT 25/M01 A2985 RMK A01 T02521009  RH  018%=      5-min Rain = 0
KPD2 091858Z 32004KT 25/M01 A2985 RMK A01 T02541009  RH  018%=      5-min Rain = 0
KPD2 091859Z 31005KT 26/M01 A2984 RMK A01 T02571006  RH  018%=      5-min Rain = 0
KPD2 091900Z 32007KT 26/M01 A2984 RMK A01 T02601006  RH  017%=      5-min Rain = 0
KPD2 091901Z 33008KT 26/M01 A2984 RMK A01 T02601008  RH  017%=      5-min Rain = 0
KPD2 091902Z 30007KT 26/M01 A2984 RMK A01 T02581009  RH  017%=      5-min Rain = 0
KPD2 091903Z 26003KT 26/M01 A2984 RMK A01 T02571009  RH  017%=      5-min Rain = 0
KPD2 091904Z 27006G11KT 26/M01 A2984 RMK A01 T02561010  RH  017%=      5-min Rain = 0
KPD2 091905Z 27007KT 26/M01 A2984 RMK A01 T02551009  RH  018%=      5-min Rain = 0
KPD2 091906Z 28006G11KT 26/M01 A2984 RMK A01 T02561009  RH  018%=      5-min Rain = 0
KPD2 091907Z 28007KT 26/M01 A2984 RMK A01 T02561008  RH  018%=      5-min Rain = 0
KPD2 091908Z 28009KT 26/M01 A2984 RMK A01 T02571008  RH  017%=      5-min Rain = 0
KPD2 091909Z 29008KT 26/M01 A2984 RMK A01 T02571009  RH  017%=      5-min Rain = 0
KPD2 091910Z 27009G15KT 26/M01 A2984 RMK A01 T02571008  RH  017%=      5-min Rain = 0
KPD2 091911Z 28007KT 26/M01 A2983 RMK A01 T02571007  RH  018%=      5-min Rain = 0
KPD2 091912Z 27008KT 26/M01 A2983 RMK A01 T02571007  RH  018%=      5-min Rain = 0
KPD2 091913Z 27007KT 26/M01 A2983 RMK A01 T02571007  RH  018%=      5-min Rain = 0
KPD2 091914Z 27007KT 26/M01 A2983 RMK A01 T02581006  RH  018%=      5-min Rain = 0
KPD2 091915Z 26011KT 26/M01 A2983 RMK A01 T02591006  RH  017%=      5-min Rain = 0
KPD2 091916Z 27009KT 26/M01 A2983 RMK A01 T02571008  RH  017%=      5-min Rain = 0
KPD2 091917Z 25007KT 26/M01 A2983 RMK A01 T02551007  RH  018%=      5-min Rain = 0
KPD2 091918Z 24007KT 26/M01 A2983 RMK A01 T02561006  RH  018%=      5-min Rain = 0
KPD2 091919Z 26009KT 26/M01 A2983 RMK A01 T02571005  RH  018%=      5-min Rain = 0
KPD2 091920Z 26009KT 26/M01 A2983 RMK A01 T02581006  RH  018%=      5-min Rain = 0
KPD2 091921Z 27008KT 26/M01 A2983 RMK A01 T02591005  RH  018%=      5-min Rain = 0
KPD2 091922Z 27006KT 26/M01 A2983 RMK A01 T02601005  RH  018%=      5-min Rain = 0
KPD2 091923Z 27008KT 26/M00 A2983 RMK A01 T02621004  RH  017%=      5-min Rain = 0
KPD2 091924Z 26009G15KT 26/M00 A2983 RMK A01 T02631004  RH  017%=      5-min Rain = 0
KPD2 091925Z 27007G12KT 26/M01 A2983 RMK A01 T02641005  RH  017%=      5-min Rain = 0
KPD2 091926Z 26007G12KT 26/M01 A2983 RMK A01 T02641005  RH  017%=      5-min Rain = 0
KPD2 091927Z 26010KT 26/M01 A2983 RMK A01 T02641005  RH  017%=      5-min Rain = 0
KPD2 091928Z 27007KT 26/M01 A2983 RMK A01 T02631006  RH  017%=      5-min Rain = 0
KPD2 091929Z 29007G13KT 26/M01 A2983 RMK A01 T02621005  RH  017%=      5-min Rain = 0
KPD2 091930Z 29009KT 26/M00 A2982 RMK A01 T02631004  RH  017%=      5-min Rain = 0
KPD2 091931Z 30010KT 26/M01 A2982 RMK A01 T02641006  RH  017%=      5-min Rain = 0
KPD2 091932Z 30010G15KT 26/M01 A2982 RMK A01 T02641005  RH  017%=      5-min Rain = 0
KPD2 091933Z 31010KT 26/M01 A2982 RMK A01 T02631007  RH  017%=      5-min Rain = 0
KPD2 091934Z 30008KT 26/M01 A2982 RMK A01 T02621007  RH  017%=      5-min Rain = 0
KPD2 091935Z 32009KT 26/M01 A2982 RMK A01 T02621006  RH  017%=      5-min Rain = 0
KPD2 091936Z 31010KT 27/M00 A2982 RMK A01 T02651004  RH  017%=      5-min Rain = 0
KPD2 091937Z 29009KT 27/M01 A2982 RMK A01 T02661006  RH  017%=      5-min Rain = 0
KPD2 091938Z 31009KT 26/M01 A2982 RMK A01 T02641007  RH  017%=      5-min Rain = 0
KPD2 091939Z 33009KT 26/M01 A2982 RMK A01 T02641005  RH  017%=      5-min Rain = 0
KPD2 091940Z 32008KT 27/M00 A2982 RMK A01 T02681004  RH  017%=      5-min Rain = 0
KPD2 091941Z 31005KT 27/M00 A2982 RMK A01 T02691004  RH  017%=      5-min Rain = 0
KPD2 091942Z 31008KT 27/M00 A2982 RMK A01 T02701004  RH  017%=      5-min Rain = 0
KPD2 091943Z 32010KT 27/M00 A2982 RMK A01 T02721004  RH  016%=      5-min Rain = 0
KPD2 091944Z 32011KT 27/M01 A2982 RMK A01 T02731005  RH  016%=      5-min Rain = 0
KPD2 091945Z 32008KT 27/M01 A2982 RMK A01 T02711006  RH  016%=      5-min Rain = 0
KPD2 091946Z 31010KT 27/M01 A2982 RMK A01 T02701006  RH  016%=      5-min Rain = 0
KPD2 091947Z 30009KT 27/M01 A2981 RMK A01 T02691007  RH  016%=      5-min Rain = 0
KPD2 091948Z 30009KT 27/M01 A2981 RMK A01 T02671009  RH  016%=      5-min Rain = 0
KPD2 091949Z 30006KT 27/M01 A2981 RMK A01 T02661007  RH  017%=      5-min Rain = 0
KPD2 091950Z 31007G12KT 27/M01 A2981 RMK A01 T02681006  RH  017%=      5-min Rain = 0
KPD2 091951Z 31007KT 27/M01 A2981 RMK A01 T02691007  RH  016%=      5-min Rain = 0
KPD2 091952Z 31011KT 27/M01 A2981 RMK A01 T02691007  RH  016%=      5-min Rain = 0
KPD2 091953Z 31011KT 27/M01 A2981 RMK A01 T02701007  RH  016%=      5-min Rain = 0
KPD2 091954Z 31010KT 27/M01 A2981 RMK A01 T02711007  RH  016%=      5-min Rain = 0
KPD2 091955Z 32008KT 27/M01 A2981 RMK A01 T02711008  RH  016%=      5-min Rain = 0
KPD2 091956Z 30006KT 27/M01 A2981 RMK A01 T02731007  RH  016%=      5-min Rain = 0
KPD2 091957Z 31005KT 27/M01 A2981 RMK A01 T02731008  RH  016%=      5-min Rain = 0
KPD2 091958Z 32007KT 27/M01 A2981 RMK A01 T02721006  RH  016%=      5-min Rain = 0
KPD2 091959Z 29010KT 28/M00 A2981 RMK A01 T02751004  RH  016%=      5-min Rain = 0
KPD2 092000Z 28009KT 28/M01 A2981 RMK A01 T02751007  RH  016%=      5-min Rain = 0
KPD2 092001Z 30007KT 27/M01 A2981 RMK A01 T02721008  RH  016%=      5-min Rain = 0
KPD2 092002Z 33008KT 27/M01 A2981 RMK A01 T02691010  RH  016%=      5-min Rain = 0
KPD2 092003Z 31009KT 27/M01 A2981 RMK A01 T02681009  RH  016%=      5-min Rain = 0
KPD2 092004Z 31008KT 27/M01 A2981 RMK A01 T02691008  RH  016%=      5-min Rain = 0
KPD2 092005Z 30005KT 27/M01 A2981 RMK A01 T02681008  RH  016%=      5-min Rain = 0
KPD2 092006Z 31006KT 27/M01 A2981 RMK A01 T02671009  RH  016%=      5-min Rain = 0
KPD2 092007Z 29004KT 27/M01 A2981 RMK A01 T02661009  RH  016%=      5-min Rain = 0
KPD2 092008Z 29005G10KT 27/M01 A298 RMK A01 T02661008  RH  017%=      5-min Rain = 0
KPD2 092009Z 31006KT 27/M01 A298 RMK A01 T02651009  RH  017%=      5-min Rain = 0
KPD2 092010Z 27006KT 27/M01 A298 RMK A01 T02661009  RH  016%=      5-min Rain = 0
KPD2 092011Z 24005KT 27/M01 A298 RMK A01 T02681009  RH  016%=      5-min Rain = 0
KPD2 092012Z 26004KT 27/M01 A298 RMK A01 T02701009  RH  016%=      5-min Rain = 0
KPD2 092013Z 23006KT 27/M01 A298 RMK A01 T02711009  RH  016%=      5-min Rain = 0
KPD2 092014Z 24006KT 27/M01 A298 RMK A01 T02731008  RH  016%=      5-min Rain = 0
KPD2 092015Z 24004KT 27/M01 A298 RMK A01 T02731009  RH  016%=      5-min Rain = 0
KPD2 092016Z 25006KT 27/M01 A298 RMK A01 T02741009  RH  016%=      5-min Rain = 0
KPD2 092017Z 26006KT 27/M01 A298 RMK A01 T02741009  RH  016%=      5-min Rain = 0
KPD2 092018Z 28008KT 27/M01 A298 RMK A01 T02741010  RH  016%=      5-min Rain = 0
KPD2 092019Z 29006KT 27/M01 A298 RMK A01 T02731012  RH  015%=      5-min Rain = 0
KPD2 092020Z 32008G13KT 27/M01 A298 RMK A01 T02731011  RH  015%=      5-min Rain = 0
KPD2 092021Z 29007KT 28/M01 A298 RMK A01 T02761011  RH  015%=      5-min Rain = 0
KPD2 092022Z 27005KT 28/M01 A298 RMK A01 T02771011  RH  015%=      5-min Rain = 0
KPD2 092023Z 26007KT 28/M01 A298 RMK A01 T02781008  RH  015%=      5-min Rain = 0
KPD2 092024Z 27006KT 28/M01 A298 RMK A01 T02801008  RH  015%=      5-min Rain = 0
KPD2 092025Z 26009KT 28/M01 A298 RMK A01 T02821008  RH  015%=      5-min Rain = 0
KPD2 092026Z 27010G15KT 28/M01 A298 RMK A01 T02821012  RH  015%=      5-min Rain = 0
KPD2 092027Z 27007KT 28/M01 A298 RMK A01 T02811014  RH  015%=      5-min Rain = 0
KPD2 092028Z 27008KT 28/M01 A298 RMK A01 T02791014  RH  015%=      5-min Rain = 0
KPD2 092029Z 27008KT 28/M01 A298 RMK A01 T02791014  RH  015%=      5-min Rain = 0
KPD2 092030Z 27010KT 28/M01 A298 RMK A01 T02791014  RH  015%=      5-min Rain = 0
KPD2 092031Z 27009KT 28/M01 A298 RMK A01 T02791014  RH  015%=      5-min Rain = 0
KPD2 092032Z 26008KT 28/M01 A298 RMK A01 T02781014  RH  015%=      5-min Rain = 0
KPD2 092033Z 26008KT 28/M02 A298 RMK A01 T02771015  RH  015%=      5-min Rain = 0
KPD2 092034Z 27007KT 28/M02 A298 RMK A01 T02761015  RH  015%=      5-min Rain = 0
KPD2 092035Z 27008KT 28/M01 A298 RMK A01 T02771014  RH  015%=      5-min Rain = 0
KPD2 092036Z 26009KT 28/M01 A298 RMK A01 T02781014  RH  015%=      5-min Rain = 0
KPD2 092037Z 26007KT 28/M01 A298 RMK A01 T02781014  RH  015%=      5-min Rain = 0
KPD2 092038Z 26009KT 28/M02 A298 RMK A01 T02781015  RH  015%=      5-min Rain = 0
KPD2 092039Z 29007KT 28/M02 A298 RMK A01 T02781015  RH  015%=      5-min Rain = 0
KPD2 092040Z 28007KT 28/M02 A298 RMK A01 T02781016  RH  015%=      5-min Rain = 0
KPD2 092041Z 26006KT 28/M02 A298 RMK A01 T02781016  RH  015%=      5-min Rain = 0
KPD2 092042Z 30006KT 28/M02 A298 RMK A01 T02781016  RH  015%=      5-min Rain = 0
KPD2 092043Z 30008KT 28/M01 A298 RMK A01 T02791014  RH  015%=      5-min Rain = 0
KPD2 092044Z 29004KT 28/M02 A298 RMK A01 T02801015  RH  014%=      5-min Rain = 0
KPD2 092045Z 27008KT 28/M02 A298 RMK A01 T02791016  RH  014%=      5-min Rain = 0
KPD2 092046Z 26006G12KT 28/M02 A298 RMK A01 T02781016  RH  015%=      5-min Rain = 0
KPD2 092047Z 25008G13KT 28/M02 A298 RMK A01 T02781015  RH  015%=      5-min Rain = 0
KPD2 092048Z 26005KT 28/M02 A298 RMK A01 T02771015  RH  015%=      5-min Rain = 0
KPD2 092049Z 29008KT 28/M02 A298 RMK A01 T02781015  RH  015%=      5-min Rain = 0
KPD2 092050Z 27008KT 28/M02 A298 RMK A01 T02761016  RH  015%=      5-min Rain = 0
KPD2 092051Z 28009KT 28/M02 A298 RMK A01 T02761015  RH  015%=      5-min Rain = 0
KPD2 092052Z 30008KT 28/M02 A298 RMK A01 T02761015  RH  015%=      5-min Rain = 0
KPD2 092053Z 28007G12KT 28/M02 A298 RMK A01 T02761016  RH  015%=      5-min Rain = 0
KPD2 092054Z 30006KT 28/M02 A298 RMK A01 T02761015  RH  015%=      5-min Rain = 0
KPD2 092055Z 28008KT 28/M02 A298 RMK A01 T02771015  RH  015%=      5-min Rain = 0
KPD2 092056Z 29005KT 28/M02 A298 RMK A01 T02771015  RH  015%=      5-min Rain = 0
KPD2 092057Z 30006KT 28/M01 A298 RMK A01 T02781014  RH  015%=      5-min Rain = 0
KPD2 092058Z 29009KT 28/M01 A298 RMK A01 T02811013  RH  015%=      5-min Rain = 0
KPD2 092059Z 27005KT 28/M01 A298 RMK A01 T02821013  RH  015%=      5-min Rain = 0
KPD2 092100Z 28006G13KT 28/M01 A298 RMK A01 T02821014  RH  014%=      5-min Rain = 0
KPD2 092101Z 26012G18KT 28/M02 A298 RMK A01 T02811015  RH  014%=      5-min Rain = 0
KPD2 092102Z 28008G13KT 28/M02 A298 RMK A01 T02791015  RH  015%=      5-min Rain = 0
KPD2 092103Z 29010KT 28/M02 A298 RMK A01 T02781015  RH  015%=      5-min Rain = 0
KPD2 092104Z 30011KT 28/M01 A298 RMK A01 T02781014  RH  015%=      5-min Rain = 0
KPD2 092105Z 30009KT 28/M02 A298 RMK A01 T02781015  RH  015%=      5-min Rain = 0
KPD2 092106Z 32012G17KT 28/M01 A298 RMK A01 T02791014  RH  015%=      5-min Rain = 0
KPD2 092107Z 30009KT 28/M01 A298 RMK A01 T02811013  RH  015%=      5-min Rain = 0
KPD2 092108Z 31007KT 28/M01 A298 RMK A01 T02821013  RH  015%=      5-min Rain = 0
KPD2 092109Z 30008KT 28/M01 A298 RMK A01 T02831013  RH  014%=      5-min Rain = 0
KPD2 092110Z 28010G15KT 28/M01 A298 RMK A01 T02831013  RH  014%=      5-min Rain = 0
KPD2 092111Z 29008KT 28/M01 A298 RMK A01 T02811014  RH  014%=      5-min Rain = 0
KPD2 092112Z 31009KT 28/M01 A298 RMK A01 T02801013  RH  015%=      5-min Rain = 0
KPD2 092113Z 30008KT 28/M01 A298 RMK A01 T02811013  RH  015%=      5-min Rain = 0
KPD2 092114Z 26009KT 28/M01 A2979 RMK A01 T02821012  RH  015%=      5-min Rain = 0
KPD2 092115Z 28007KT 28/M01 A298 RMK A01 T02831011  RH  015%=      5-min Rain = 0
KPD2 092116Z 30011KT 28/M01 A2979 RMK A01 T02831011  RH  015%=      5-min Rain = 0
KPD2 092117Z 27006G12KT 28/M01 A2979 RMK A01 T02841010  RH  015%=      5-min Rain = 0
KPD2 092118Z 27012G18KT 28/M01 A2979 RMK A01 T02831008  RH  015%=      5-min Rain = 0
KPD2 092119Z 28010KT 28/M01 A298 RMK A01 T02811006  RH  015%=      5-min Rain = 0
KPD2 092120Z 27009G14KT 28/M01 A298 RMK A01 T02791005  RH  016%=      5-min Rain = 0
KPD2 092121Z 30011KT 28/M00 A298 RMK A01 T02791003  RH  016%=      5-min Rain = 0
KPD2 092122Z 29009G14KT 28/M00 A298 RMK A01 T02791003  RH  016%=      5-min Rain = 0
KPD2 092123Z 29009KT 28/M00 A298 RMK A01 T02801002  RH  016%=      5-min Rain = 0
KPD2 092124Z 30009KT 28/M00 A2979 RMK A01 T02821001  RH  016%=      5-min Rain = 0
KPD2 092125Z 30008KT 28/M00 A2979 RMK A01 T02811001  RH  016%=      5-min Rain = 0
KPD2 092126Z 31012KT 28/00 A2979 RMK A01 T028200-0  RH  016%=      5-min Rain = 0
KPD2 092127Z 32011G16KT 28/00 A2979 RMK A01 T02830002  RH  016%=      5-min Rain = 0
KPD2 092128Z 30007G12KT 28/00 A2979 RMK A01 T02820002  RH  016%=      5-min Rain = 0
KPD2 092129Z 30010KT 28/00 A2979 RMK A01 T02830003  RH  016%=      5-min Rain = 0
KPD2 092130Z 29010KT 28/00 A2979 RMK A01 T02810002  RH  016%=      5-min Rain = 0
KPD2 092131Z 29007KT 28/00 A298 RMK A01 T02770001  RH  017%=      5-min Rain = 0
KPD2 092132Z 30010G15KT 27/00 A298 RMK A01 T02740001  RH  017%=      5-min Rain = 0
KPD2 092133Z 30009KT 27/00 A2979 RMK A01 T02710000  RH  017%=      5-min Rain = 0
KPD2 092134Z 29006KT 27/00 A2979 RMK A01 T02680000  RH  017%=      5-min Rain = 0
KPD2 092135Z 29007G12KT 27/00 A2979 RMK A01 T02660000  RH  018%=      5-min Rain = 0
KPD2 092136Z 30007KT 27/00 A2979 RMK A01 T02660000  RH  018%=      5-min Rain = 0
KPD2 092137Z 32009KT 27/00 A2979 RMK A01 T02650000  RH  018%=      5-min Rain = 0
KPD2 092138Z 31008G15KT 27/00 A2979 RMK A01 T02650000  RH  018%=      5-min Rain = 0
KPD2 092139Z 32012KT 27/00 A2979 RMK A01 T026500-0  RH  018%=      5-min Rain = 0
KPD2 092140Z 32008KT 26/M00 A2979 RMK A01 T02631002  RH  018%=      5-min Rain = 0
KPD2 092141Z 31010KT 26/M00 A2979 RMK A01 T02621002  RH  018%=      5-min Rain = 0
KPD2 092142Z 31008KT 26/M00 A2979 RMK A01 T02611002  RH  018%=      5-min Rain = 0
KPD2 092143Z 31007KT 26/M00 A2979 RMK A01 T02601003  RH  018%=      5-min Rain = 0
KPD2 092144Z 31009KT 26/M00 A2979 RMK A01 T02601003  RH  018%=      5-min Rain = 0
KPD2 092145Z 31008KT 26/M00 A2979 RMK A01 T02591004  RH  018%=      5-min Rain = 0
KPD2 092146Z 30005KT 26/M00 A2979 RMK A01 T02601003  RH  018%=      5-min Rain = 0
KPD2 092147Z 31005KT 26/M00 A2979 RMK A01 T02591003  RH  018%=      5-min Rain = 0
KPD2 092148Z 29008KT 26/M00 A2979 RMK A01 T02621003  RH  018%=      5-min Rain = 0
KPD2 092149Z 30009KT 26/M01 A2979 RMK A01 T02641005  RH  017%=      5-min Rain = 0
KPD2 092150Z 31008KT 27/M01 A2979 RMK A01 T02651005  RH  017%=      5-min Rain = 0
KPD2 092151Z 31006KT 27/M01 A298 RMK A01 T02671005  RH  017%=      5-min Rain = 0
KPD2 092152Z 30008KT 27/M00 A298 RMK A01 T02691004  RH  017%=      5-min Rain = 0
KPD2 092153Z 31007KT 27/M01 A298 RMK A01 T02711005  RH  016%=      5-min Rain = 0
KPD2 092154Z 31007KT 27/M01 A2979 RMK A01 T02731006  RH  016%=      5-min Rain = 0
KPD2 092155Z 30006KT 27/M01 A2979 RMK A01 T02741007  RH  016%=      5-min Rain = 0
KPD2 092156Z 28005KT 27/M01 A298 RMK A01 T02731007  RH  016%=      5-min Rain = 0
KPD2 092157Z 30009G14KT 27/M01 A298 RMK A01 T02731008  RH  016%=      5-min Rain = 0
KPD2 092158Z 30007KT 27/M01 A298 RMK A01 T02721009  RH  016%=      5-min Rain = 0
KPD2 092159Z 29007KT 27/M01 A298 RMK A01 T02711009  RH  016%=      5-min Rain = 0
KPD2 092200Z 32006KT 27/M01 A2979 RMK A01 T02711009  RH  016%=      5-min Rain = 0
KPD2 092201Z 29006KT 27/M01 A2979 RMK A01 T02711009  RH  016%=      5-min Rain = 0
KPD2 092202Z 29006KT 27/M01 A2979 RMK A01 T02711010  RH  016%=      5-min Rain = 0
KPD2 092203Z 27008KT 27/M01 A298 RMK A01 T02711011  RH  016%=      5-min Rain = 0
KPD2 092204Z 27007KT 27/M01 A298 RMK A01 T02701012  RH  016%=      5-min Rain = 0
KPD2 092205Z 27009KT 27/M02 A298 RMK A01 T02701022  RH  015%=      5-min Rain = 0
KPD2 092206Z 30009KT 27/M03 A298 RMK A01 T02701027  RH  014%=      5-min Rain = 0
KPD2 092207Z 30006KT 27/M03 A298 RMK A01 T02701032  RH  013%=      5-min Rain = 0
KPD2 092208Z 29009KT 27/M03 A298 RMK A01 T02711032  RH  013%=      5-min Rain = 0
KPD2 092209Z 30008KT 27/M03 A2979 RMK A01 T02721033  RH  013%=      5-min Rain = 0
KPD2 092210Z 30007KT 27/M03 A2979 RMK A01 T02721034  RH  013%=      5-min Rain = 0
KPD2 092211Z 30008KT 27/M03 A2979 RMK A01 T02731034  RH  013%=      5-min Rain = 0
KPD2 092212Z 31009G14KT 27/M04 A2979 RMK A01 T02741036  RH  013%=      5-min Rain = 0
KPD2 092213Z 30010KT 27/M04 A2979 RMK A01 T02731037  RH  013%=      5-min Rain = 0
KPD2 092214Z 30008G13KT 27/M04 A2979 RMK A01 T02731038  RH  013%=      5-min Rain = 0
KPD2 092215Z 29011KT 27/M04 A2979 RMK A01 T02731039  RH  013%=      5-min Rain = 0
KPD2 092216Z 31008KT 27/M04 A2979 RMK A01 T02721039  RH  013%=      5-min Rain = 0
KPD2 092217Z 32008KT 27/M04 A2979 RMK A01 T02721037  RH  013%=      5-min Rain = 0
KPD2 092218Z 32008KT 27/M04 A2979 RMK A01 T02731035  RH  013%=      5-min Rain = 0
KPD2 092219Z 32010KT 27/M04 A2979 RMK A01 T02731035  RH  013%=      5-min Rain = 0
KPD2 092220Z 32008KT 27/M04 A2979 RMK A01 T02721036  RH  013%=      5-min Rain = 0
KPD2 092221Z 30006KT 27/M04 A2979 RMK A01 T02721036  RH  013%=      5-min Rain = 0
KPD2 092222Z 30005KT 27/M04 A2979 RMK A01 T02721035  RH  013%=      5-min Rain = 0
KPD2 092223Z 31007KT 27/M03 A2979 RMK A01 T02721034  RH  013%=      5-min Rain = 0
KPD2 092224Z 30009KT 27/M04 A2979 RMK A01 T02711035  RH  013%=      5-min Rain = 0
KPD2 092225Z 31009KT 27/M04 A2979 RMK A01 T02681035  RH  013%=      5-min Rain = 0
KPD2 092226Z 32008KT 27/M04 A2979 RMK A01 T02651035  RH  014%=      5-min Rain = 0
KPD2 092227Z 31008KT 26/M03 A2979 RMK A01 T02631034  RH  014%=      5-min Rain = 0
KPD2 092228Z 30007KT 26/M03 A2979 RMK A01 T02611034  RH  014%=      5-min Rain = 0
KPD2 092229Z 30010KT 26/M03 A2979 RMK A01 T02611034  RH  014%=      5-min Rain = 0
KPD2 092230Z 30006G11KT 26/M03 A2979 RMK A01 T02611033  RH  014%=      5-min Rain = 0
KPD2 092231Z 30007KT 26/M03 A2979 RMK A01 T02611032  RH  014%=      5-min Rain = 0
KPD2 092232Z 27006KT 26/M03 A298 RMK A01 T02611032  RH  014%=      5-min Rain = 0
KPD2 092233Z 28005KT 26/M03 A298 RMK A01 T02601032  RH  014%=      5-min Rain = 0
KPD2 092234Z 27006KT 26/M03 A298 RMK A01 T02601032  RH  014%=      5-min Rain = 0
KPD2 092235Z 26007KT 26/M03 A298 RMK A01 T02591034  RH  014%=      5-min Rain = 0
KPD2 092236Z 27005KT 26/M03 A298 RMK A01 T02591034  RH  014%=      5-min Rain = 0
KPD2 092237Z 27006KT 26/M04 A298 RMK A01 T02581035  RH  014%=      5-min Rain = 0
KPD2 092238Z 28007KT 26/M04 A298 RMK A01 T02571036  RH  014%=      5-min Rain = 0
KPD2 092239Z 27006KT 26/M04 A298 RMK A01 T02561037  RH  014%=      5-min Rain = 0
KPD2 092240Z 28006KT 26/M04 A298 RMK A01 T02551038  RH  014%=      5-min Rain = 0
KPD2 092241Z 31006KT 25/M04 A298 RMK A01 T02541038  RH  014%=      5-min Rain = 0
KPD2 092242Z 30005KT 25/M04 A298 RMK A01 T02541039  RH  014%=      5-min Rain = 0
KPD2 092243Z 30005KT 25/M04 A298 RMK A01 T02531039  RH  014%=      5-min Rain = 0
KPD2 092244Z 29008KT 25/M04 A298 RMK A01 T02521039  RH  014%=      5-min Rain = 0
KPD2 092245Z 28009KT 25/M04 A298 RMK A01 T02521040  RH  014%=      5-min Rain = 0
KPD2 092246Z 29007KT 25/M04 A298 RMK A01 T02521041  RH  014%=      5-min Rain = 0
KPD2 092247Z 30007KT 25/M04 A298 RMK A01 T02521041  RH  014%=      5-min Rain = 0
KPD2 092248Z 31006KT 25/M04 A298 RMK A01 T02511040  RH  014%=      5-min Rain = 0
KPD2 092249Z 30007KT 25/M04 A298 RMK A01 T02501040  RH  014%=      5-min Rain = 0
KPD2 092250Z 30006KT 25/M04 A298 RMK A01 T02501039  RH  014%=      5-min Rain = 0
KPD2 092251Z 30005KT 25/M04 A298 RMK A01 T02491040  RH  014%=      5-min Rain = 0
KPD2 092252Z 29005KT 25/M04 A2981 RMK A01 T02491039  RH  015%=      5-min Rain = 0
KPD2 092253Z 29004KT 25/M04 A2981 RMK A01 T02481040  RH  015%=      5-min Rain = 0
KPD2 092254Z 29003KT 25/M04 A2981 RMK A01 T02471039  RH  015%=      5-min Rain = 0
KPD2 092255Z 28005KT 25/M04 A2981 RMK A01 T02461040  RH  015%=      5-min Rain = 0
KPD2 092256Z 28005KT 25/M04 A2981 RMK A01 T02451041  RH  015%=      5-min Rain = 0
KPD2 092257Z 29005KT 25/M04 A2981 RMK A01 T02461041  RH  015%=      5-min Rain = 0
KPD2 092258Z 28005KT 25/M04 A2981 RMK A01 T02471041  RH  015%=      5-min Rain = 0
KPD2 092259Z 28004KT 25/M04 A2981 RMK A01 T02481040  RH  014%=      5-min Rain = 0
KPD2 092300Z 28004KT 25/M04 A2981 RMK A01 T02491041  RH  014%=      5-min Rain = 0
KPD2 092301Z 28003KT 25/M04 A2981 RMK A01 T02501040  RH  014%=      5-min Rain = 0
KPD2 092302Z 28003KT 25/M04 A2981 RMK A01 T02511039  RH  014%=      5-min Rain = 0
KPD2 092303Z 30004KT 25/M04 A2981 RMK A01 T02511040  RH  014%=      5-min Rain = 0
KPD2 092304Z 27003KT 25/M04 A2981 RMK A01 T02511039  RH  014%=      5-min Rain = 0
KPD2 092305Z 27005KT 25/M04 A2981 RMK A01 T02511039  RH  014%=      5-min Rain = 0
KPD2 092306Z 27005KT 25/M04 A2981 RMK A01 T02511037  RH  015%=      5-min Rain = 0
KPD2 092307Z 27005KT 25/M04 A2981 RMK A01 T02501037  RH  015%=      5-min Rain = 0
KPD2 092308Z 28004KT 25/M04 A2981 RMK A01 T02491036  RH  015%=      5-min Rain = 0
KPD2 092309Z 26004KT 25/M04 A2981 RMK A01 T02491036  RH  015%=      5-min Rain = 0
KPD2 092310Z 27005KT 25/M03 A2981 RMK A01 T02491034  RH  015%=      5-min Rain = 0
KPD2 092311Z 28003KT 25/M03 A2981 RMK A01 T02491033  RH  015%=      5-min Rain = 0
KPD2 092312Z 26003KT 25/M03 A2981 RMK A01 T02491033  RH  015%=      5-min Rain = 0
KPD2 092313Z 27004KT 25/M03 A2981 RMK A01 T02481033  RH  015%=      5-min Rain = 0
KPD2 092314Z 27005KT 25/M03 A2981 RMK A01 T02481032  RH  015%=      5-min Rain = 0
KPD2 092315Z 29004KT 25/M03 A2981 RMK A01 T02471033  RH  015%=      5-min Rain = 0
KPD2 092316Z 27004KT 25/M03 A2981 RMK A01 T02461033  RH  016%=      5-min Rain = 0
KPD2 092317Z 27006KT 24/M03 A2981 RMK A01 T02441033  RH  016%=      5-min Rain = 0
KPD2 092318Z 27004KT 24/M03 A2981 RMK A01 T02431030  RH  016%=      5-min Rain = 0
KPD2 092319Z 30002KT 24/M03 A2981 RMK A01 T02411031  RH  016%=      5-min Rain = 0
KPD2 092320Z 28003KT 24/M03 A2981 RMK A01 T02401031  RH  016%=      5-min Rain = 0
KPD2 092321Z 31005KT 24/M03 A2981 RMK A01 T02381032  RH  016%=      5-min Rain = 0
KPD2 092322Z 30005KT 24/M03 A2981 RMK A01 T02371031  RH  017%=      5-min Rain = 0
KPD2 092323Z 29004KT 24/M03 A2981 RMK A01 T02371029  RH  017%=      5-min Rain = 0
KPD2 092324Z 26003KT 24/M03 A2981 RMK A01 T02371029  RH  017%=      5-min Rain = 0
KPD2 092325Z 27003KT 24/M03 A2981 RMK A01 T02361028  RH  017%=      5-min Rain = 0
KPD2 092326Z 28003KT 24/M03 A2981 RMK A01 T02351027  RH  017%=      5-min Rain = 0
KPD2 092327Z 31003KT 23/M03 A2981 RMK A01 T02341026  RH  018%=      5-min Rain = 0
KPD2 092328Z 30003KT 23/M03 A2981 RMK A01 T02341027  RH  017%=      5-min Rain = 0
KPD2 092329Z 28004KT 23/M03 A2981 RMK A01 T02321028  RH  018%=      5-min Rain = 0
KPD2 092330Z 30003KT 23/M03 A2981 RMK A01 T02311025  RH  018%=      5-min Rain = 0
KPD2 092331Z 30003KT 23/M02 A2981 RMK A01 T02301024  RH  018%=      5-min Rain = 0
KPD2 092332Z 26003KT 23/M03 A2981 RMK A01 T02301025  RH  018%=      5-min Rain = 0
KPD2 092333Z 26002KT 23/M02 A2981 RMK A01 T02291024  RH  018%=      5-min Rain = 0
KPD2 092334Z 26001KT 23/M02 A2981 RMK A01 T02291024  RH  018%=      5-min Rain = 0
KPD2 092335Z 29001KT 23/M03 A2981 RMK A01 T02281025  RH  018%=      5-min Rain = 0
KPD2 092336Z 33002KT 23/M03 A2981 RMK A01 T02271025  RH  018%=      5-min Rain = 0
KPD2 092337Z 01002KT 23/M03 A2981 RMK A01 T02261025  RH  018%=      5-min Rain = 0
KPD2 092338Z 25002KT 23/M03 A2981 RMK A01 T02251025  RH  019%=      5-min Rain = 0
KPD2 092339Z 31002KT 22/M02 A2981 RMK A01 T02241023  RH  019%=      5-min Rain = 0
KPD2 092340Z 31002KT 22/M02 A2981 RMK A01 T02221024  RH  019%=      5-min Rain = 0
KPD2 092341Z 26002KT 22/M02 A2981 RMK A01 T02211024  RH  019%=      5-min Rain = 0
KPD2 092342Z 26003KT 22/M02 A2981 RMK A01 T02211023  RH  019%=      5-min Rain = 0
KPD2 092343Z 34002KT 22/M02 A2981 RMK A01 T02211024  RH  019%=      5-min Rain = 0
KPD2 092344Z 01003KT 22/M02 A2981 RMK A01 T02211024  RH  019%=      5-min Rain = 0
KPD2 092345Z 33004KT 22/M02 A2981 RMK A01 T02201023  RH  019%=      5-min Rain = 0
KPD2 092346Z 31004KT 22/M02 A2981 RMK A01 T02191022  RH  020%=      5-min Rain = 0
KPD2 092347Z 26002KT 22/M02 A2981 RMK A01 T02191021  RH  020%=      5-min Rain = 0
KPD2 092348Z 26002KT 22/M02 A2981 RMK A01 T02191021  RH  020%=      5-min Rain = 0
KPD2 092349Z 22001KT 22/M02 A2981 RMK A01 T02181022  RH  020%=      5-min Rain = 0
KPD2 092350Z 24001KT 22/M02 A2981 RMK A01 T02171022  RH  020%=      5-min Rain = 0
KPD2 092351Z 25001KT 22/M02 A2981 RMK A01 T02161021  RH  020%=      5-min Rain = 0
KPD2 092352Z 27001KT 22/M02 A2981 RMK A01 T02151020  RH  020%=      5-min Rain = 0
KPD2 092353Z 27003G8KT 22/M02 A2981 RMK A01 T02151020  RH  021%=      5-min Rain = 0
KPD2 092354Z 26004KT 21/M02 A2981 RMK A01 T02141019  RH  021%=      5-min Rain = 0
KPD2 092355Z 25002KT 21/M02 A2981 RMK A01 T02141018  RH  021%=      5-min Rain = 0
KPD2 092356Z 26002KT 21/M02 A2981 RMK A01 T02131018  RH  021%=      5-min Rain = 0
KPD2 092357Z 27003KT 21/M02 A2981 RMK A01 T02121018  RH  021%=      5-min Rain = 0
KPD2 092358Z 29002KT 21/M02 A2981 RMK A01 T02121018  RH  021%=      5-min Rain = 0
KPD2 092359Z 29002KT 21/M02 A2981 RMK A01 T02111018  RH  021%=      5-min Rain = 0
KPD2 100000Z 30002KT 21/M02 A2981 RMK A01 T02091018  RH  022%=      5-min Rain = 0
KPD2 100001Z 27003KT 21/M02 A2981 RMK A01 T02091018  RH  022%=      5-min Rain = 0
KPD2 100002Z 28003KT 21/M02 A2981 RMK A01 T02081017  RH  022%=      5-min Rain = 0
KPD2 100003Z 30001KT 21/M02 A2981 RMK A01 T02091017  RH  022%=      5-min Rain = 0
KPD2 100004Z 28002KT 21/M02 A2981 RMK A01 T02081018  RH  022%=      5-min Rain = 0
KPD2 100005Z 27001KT 21/M02 A2981 RMK A01 T02071018  RH  022%=      5-min Rain = 0
KPD2 100006Z 24001KT 21/M02 A2981 RMK A01 T02071018  RH  022%=      5-min Rain = 0
KPD2 100007Z 27002KT 21/M02 A2981 RMK A01 T02071017  RH  022%=      5-min Rain = 0
KPD2 100008Z 25003KT 21/M02 A2981 RMK A01 T02071017  RH  022%=      5-min Rain = 0
KPD2 100009Z 23002KT 21/M02 A2981 RMK A01 T02071017  RH  022%=      5-min Rain = 0
KPD2 100010Z 01000KT 21/M02 A2981 RMK A01 T02061017  RH  022%=      5-min Rain = 0
KPD2 100011Z 21000KT 21/M02 A2981 RMK A01 T02051017  RH  022%=      5-min Rain = 0
KPD2 100012Z 26001KT 21/M02 A2981 RMK A01 T02051017  RH  022%=      5-min Rain = 0
KPD2 100013Z 25001KT 21/M02 A2981 RMK A01 T02051017  RH  022%=      5-min Rain = 0
KPD2 100014Z 25002KT 21/M02 A2981 RMK A01 T02051017  RH  022%=      5-min Rain = 0
KPD2 100015Z 28001KT 20/M02 A2981 RMK A01 T02041017  RH  023%=      5-min Rain = 0
KPD2 100016Z 30002KT 20/M02 A2981 RMK A01 T02031018  RH  023%=      5-min Rain = 0
KPD2 100017Z 26002KT 20/M02 A2981 RMK A01 T02031018  RH  023%=      5-min Rain = 0
KPD2 100018Z 26002KT 20/M02 A2981 RMK A01 T02011019  RH  023%=      5-min Rain = 0
KPD2 100019Z 26002KT 20/M02 A2981 RMK A01 T02001019  RH  023%=      5-min Rain = 0
KPD2 100020Z 27004KT 20/M02 A2981 RMK A01 T02001018  RH  023%=      5-min Rain = 0
KPD2 100021Z 27003KT 20/M02 A2982 RMK A01 T01991018  RH  023%=      5-min Rain = 0
KPD2 100022Z 30003KT 20/M02 A2982 RMK A01 T01991018  RH  023%=      5-min Rain = 0
KPD2 100023Z 28002KT 20/M02 A2982 RMK A01 T01991018  RH  023%=      5-min Rain = 0
KPD2 100024Z 29001KT 20/M02 A2982 RMK A01 T01991018  RH  023%=      5-min Rain = 0
KPD2 100025Z 27003KT 20/M02 A2982 RMK A01 T01981018  RH  023%=      5-min Rain = 0
KPD2 100026Z 28002KT 20/M02 A2982 RMK A01 T01981018  RH  023%=      5-min Rain = 0
KPD2 100027Z 04000KT 20/M02 A2982 RMK A01 T01981019  RH  023%=      5-min Rain = 0
KPD2 100028Z 31001KT 20/M02 A2982 RMK A01 T01971019  RH  023%=      5-min Rain = 0
KPD2 100029Z 30001KT 20/M02 A2982 RMK A01 T01961018  RH  023%=      5-min Rain = 0
KPD2 100030Z 27002KT 20/M02 A2982 RMK A01 T01961018  RH  024%=      5-min Rain = 0
KPD2 100031Z 25005KT 20/M02 A2982 RMK A01 T01951018  RH  024%=      5-min Rain = 0
KPD2 100032Z 23003KT 20/M02 A2982 RMK A01 T01961018  RH  024%=      5-min Rain = 0
KPD2 100033Z 22000KT 20/M02 A2982 RMK A01 T01961017  RH  024%=      5-min Rain = 0
KPD2 100034Z 26002KT 20/M02 A2982 RMK A01 T01961017  RH  024%=      5-min Rain = 0
KPD2 100035Z 27002KT 20/M02 A2982 RMK A01 T01961017  RH  024%=      5-min Rain = 0
KPD2 100036Z 29002KT 20/M02 A2982 RMK A01 T01961017  RH  024%=      5-min Rain = 0
KPD2 100037Z 27003KT 20/M02 A2982 RMK A01 T01951018  RH  024%=      5-min Rain = 0
KPD2 100038Z 28003KT 19/M02 A2982 RMK A01 T01931019  RH  024%=      5-min Rain = 0
KPD2 100039Z 28001KT 19/M02 A2982 RMK A01 T01921018  RH  024%=      5-min Rain = 0
KPD2 100040Z 30002KT 19/M02 A2982 RMK A01 T01931017  RH  024%=      5-min Rain = 0
KPD2 100041Z 25002KT 19/M02 A2982 RMK A01 T01931017  RH  024%=      5-min Rain = 0
KPD2 100042Z 25003KT 19/M02 A2982 RMK A01 T01941017  RH  024%=      5-min Rain = 0
KPD2 100043Z 26004KT 19/M02 A2982 RMK A01 T01931018  RH  024%=      5-min Rain = 0
KPD2 100044Z 24004KT 19/M02 A2982 RMK A01 T01911018  RH  024%=      5-min Rain = 0
KPD2 100045Z 29004KT 19/M02 A2982 RMK A01 T01921017  RH  024%=      5-min Rain = 0
KPD2 100046Z 29003KT 19/M02 A2982 RMK A01 T01921017  RH  024%=      5-min Rain = 0
KPD2 100047Z 30003KT 19/M02 A2982 RMK A01 T01921017  RH  024%=      5-min Rain = 0
KPD2 100048Z 34003KT 19/M02 A2982 RMK A01 T01921017  RH  024%=      5-min Rain = 0
KPD2 100049Z 30001KT 19/M02 A2982 RMK A01 T01921018  RH  024%=      5-min Rain = 0
KPD2 100050Z 27002KT 19/M02 A2982 RMK A01 T01911018  RH  024%=      5-min Rain = 0
KPD2 100051Z 26003KT 19/M02 A2982 RMK A01 T01901017  RH  024%=      5-min Rain = 0
KPD2 100052Z 27002KT 19/M02 A2982 RMK A01 T01901018  RH  024%=      5-min Rain = 0
KPD2 100053Z 29003KT 19/M02 A2982 RMK A01 T01881019  RH  025%=      5-min Rain = 0
KPD2 100054Z 30004KT 19/M02 A2982 RMK A01 T01881016  RH  025%=      5-min Rain = 0
KPD2 100055Z 31003KT 19/M01 A2982 RMK A01 T01921014  RH  025%=      5-min Rain = 0
KPD2 100056Z 26003KT 19/M02 A2982 RMK A01 T01931016  RH  024%=      5-min Rain = 0
KPD2 100057Z 29002KT 19/M02 A2982 RMK A01 T01931016  RH  024%=      5-min Rain = 0
KPD2 100058Z 31001KT 19/M02 A2982 RMK A01 T01931016  RH  024%=      5-min Rain = 0
KPD2 100059Z 35001KT 19/M02 A2982 RMK A01 T01921016  RH  024%=      5-min Rain = 0
KPD2 100100Z 00000KT 19/M02 A2982 RMK A01 T01911016  RH  024%=      5-min Rain = 0
KPD2 100101Z 15000KT 19/M02 A2982 RMK A01 T01911016  RH  025%=      5-min Rain = 0
KPD2 100102Z 15001KT 19/M02 A2982 RMK A01 T01901016  RH  025%=      5-min Rain = 0
KPD2 100103Z 28000KT 19/M02 A2982 RMK A01 T01901015  RH  025%=      5-min Rain = 0
KPD2 100104Z 29001KT 19/M02 A2982 RMK A01 T01891016  RH  025%=      5-min Rain = 0
KPD2 100105Z 27002KT 19/M02 A2982 RMK A01 T01871017  RH  025%=      5-min Rain = 0
KPD2 100106Z 24002KT 19/M02 A2982 RMK A01 T01861016  RH  025%=      5-min Rain = 0
KPD2 100107Z 25002KT 19/M02 A2982 RMK A01 T01861016  RH  025%=      5-min Rain = 0
KPD2 100108Z 24002KT 19/M02 A2982 RMK A01 T01851016  RH  026%=      5-min Rain = 0
KPD2 100109Z 24002KT 19/M02 A2982 RMK A01 T01851015  RH  026%=      5-min Rain = 0
KPD2 100110Z 24002KT 19/M01 A2982 RMK A01 T01851014  RH  026%=      5-min Rain = 0
KPD2 100111Z 24003KT 19/M02 A2982 RMK A01 T01851015  RH  026%=      5-min Rain = 0
KPD2 100112Z 23002KT 19/M01 A2982 RMK A01 T01851014  RH  026%=      5-min Rain = 0
KPD2 100113Z 23002KT 19/M01 A2982 RMK A01 T01851014  RH  026%=      5-min Rain = 0
KPD2 100114Z 22003KT 18/M01 A2982 RMK A01 T01841014  RH  026%=      5-min Rain = 0
KPD2 100115Z 23002KT 18/M01 A2982 RMK A01 T01841014  RH  026%=      5-min Rain = 0
KPD2 100116Z 22004KT 18/M01 A2982 RMK A01 T01831014  RH  026%=      5-min Rain = 0
KPD2 100117Z 21004KT 18/M01 A2982 RMK A01 T01831013  RH  026%=      5-min Rain = 0
KPD2 100118Z 16003KT 18/M01 A2982 RMK A01 T01841013  RH  026%=      5-min Rain = 0
KPD2 100119Z 20004KT 18/M01 A2982 RMK A01 T01841012  RH  026%=      5-min Rain = 0
KPD2 100120Z 28002KT 18/M02 A2982 RMK A01 T01841015  RH  026%=      5-min Rain = 0
KPD2 100121Z 25002KT 18/M01 A2983 RMK A01 T01821013  RH  027%=      5-min Rain = 0
KPD2 100122Z 23003KT 18/M01 A2983 RMK A01 T01821013  RH  027%=      5-min Rain = 0
KPD2 100123Z 23003KT 18/M01 A2983 RMK A01 T01821012  RH  027%=      5-min Rain = 0
KPD2 100124Z 26003KT 18/M01 A2983 RMK A01 T01821012  RH  027%=      5-min Rain = 0
KPD2 100125Z 26001KT 18/M01 A2982 RMK A01 T01821012  RH  027%=      5-min Rain = 0
KPD2 100126Z 20003KT 18/M01 A2982 RMK A01 T01821012  RH  027%=      5-min Rain = 0
KPD2 100127Z 22002KT 18/M01 A2982 RMK A01 T01821011  RH  027%=      5-min Rain = 0
KPD2 100128Z 23004KT 18/M01 A2982 RMK A01 T01831011  RH  027%=      5-min Rain = 0
KPD2 100129Z 23002KT 19/M01 A2982 RMK A01 T01851011  RH  027%=      5-min Rain = 0
KPD2 100130Z 24003KT 19/M01 A2982 RMK A01 T01851011  RH  026%=      5-min Rain = 0
KPD2 100131Z 21005KT 18/M01 A2982 RMK A01 T01841011  RH  027%=      5-min Rain = 0
KPD2 100132Z 25002KT 19/M01 A2982 RMK A01 T01851011  RH  027%=      5-min Rain = 0
KPD2 100133Z 25003KT 19/M01 A2982 RMK A01 T01851011  RH  027%=      5-min Rain = 0
KPD2 100134Z 23003KT 18/M01 A2982 RMK A01 T01831011  RH  027%=      5-min Rain = 0
KPD2 100135Z 25002KT 18/M01 A2983 RMK A01 T01831011  RH  027%=      5-min Rain = 0
KPD2 100136Z 21003KT 18/M01 A2983 RMK A01 T01831010  RH  027%=      5-min Rain = 0
KPD2 100137Z 27002KT 18/M01 A2983 RMK A01 T01831011  RH  027%=      5-min Rain = 0
KPD2 100138Z 25003KT 18/M01 A2983 RMK A01 T01821011  RH  027%=      5-min Rain = 0
KPD2 100139Z 23005KT 18/M01 A2983 RMK A01 T01831011  RH  027%=      5-min Rain = 0
KPD2 100140Z 26003KT 18/M01 A2983 RMK A01 T01821010  RH  027%=      5-min Rain = 0
KPD2 100141Z 28003KT 18/M01 A2983 RMK A01 T01821011  RH  027%=      5-min Rain = 0
KPD2 100142Z 28002KT 18/M01 A2983 RMK A01 T01821011  RH  027%=      5-min Rain = 0
KPD2 100143Z 27002KT 18/M01 A2983 RMK A01 T01801012  RH  027%=      5-min Rain = 0
KPD2 100144Z 25002KT 18/M01 A2983 RMK A01 T01781012  RH  028%=      5-min Rain = 0
KPD2 100145Z 28002KT 18/M01 A2983 RMK A01 T01781011  RH  028%=      5-min Rain = 0
KPD2 100146Z 01002KT 18/M01 A2983 RMK A01 T01781010  RH  028%=      5-min Rain = 0
KPD2 100147Z 00002KT 18/M01 A2983 RMK A01 T01781011  RH  028%=      5-min Rain = 0
KPD2 100148Z 00002KT 18/M01 A2983 RMK A01 T01771011  RH  028%=      5-min Rain = 0
KPD2 100149Z 35002KT 18/M01 A2983 RMK A01 T01771011  RH  028%=      5-min Rain = 0
KPD2 100150Z 33000KT 18/M01 A2983 RMK A01 T01771011  RH  028%=      5-min Rain = 0
KPD2 100151Z 05001KT 18/M01 A2983 RMK A01 T01771012  RH  028%=      5-min Rain = 0
KPD2 100152Z 34002KT 18/M01 A2983 RMK A01 T01761011  RH  028%=      5-min Rain = 0
KPD2 100153Z 34002KT 18/M01 A2983 RMK A01 T01751011  RH  028%=      5-min Rain = 0
KPD2 100154Z 32001KT 18/M01 A2982 RMK A01 T01751011  RH  028%=      5-min Rain = 0
KPD2 100155Z 36002KT 18/M01 A2982 RMK A01 T01751010  RH  028%=      5-min Rain = 0
KPD2 100156Z 07000KT 17/M01 A2982 RMK A01 T01741010  RH  028%=      5-min Rain = 0
KPD2 100157Z 07000KT 17/M01 A2982 RMK A01 T01741010  RH  029%=      5-min Rain = 0
KPD2 100158Z 00000KT 18/M01 A2982 RMK A01 T01751010  RH  028%=      5-min Rain = 0
KPD2 100159Z 07001KT 18/M01 A2982 RMK A01 T01751009  RH  028%=      5-min Rain = 0
KPD2 100200Z 08001KT 18/M01 A2982 RMK A01 T01751009  RH  028%=      5-min Rain = 0
KPD2 100201Z 14002KT 18/M01 A2982 RMK A01 T01751009  RH  029%=      5-min Rain = 0
KPD2 100202Z 20002KT 18/M01 A2982 RMK A01 T01751010  RH  028%=      5-min Rain = 0
KPD2 100203Z 15000KT 18/M01 A2982 RMK A01 T01751011  RH  028%=      5-min Rain = 0
KPD2 100204Z 12001KT 17/M01 A2982 RMK A01 T01741010  RH  029%=      5-min Rain = 0
KPD2 100205Z 25003KT 17/M01 A2982 RMK A01 T01731010  RH  029%=      5-min Rain = 0
KPD2 100206Z 24002KT 17/M01 A2982 RMK A01 T01741010  RH  029%=      5-min Rain = 0
KPD2 100207Z 19002KT 17/M01 A2982 RMK A01 T01741010  RH  029%=      5-min Rain = 0
KPD2 100208Z 22003KT 17/M01 A2983 RMK A01 T01741010  RH  029%=      5-min Rain = 0
KPD2 100209Z 22001KT 17/M01 A2982 RMK A01 T01741012  RH  028%=      5-min Rain = 0
KPD2 100210Z 25002KT 17/M01 A2982 RMK A01 T01721012  RH  029%=      5-min Rain = 0
KPD2 100211Z 26003KT 17/M01 A2982 RMK A01 T01711011  RH  029%=      5-min Rain = 0
KPD2 100212Z 25002KT 17/M01 A2982 RMK A01 T01721010  RH  029%=      5-min Rain = 0
KPD2 100213Z 24001KT 17/M01 A2982 RMK A01 T01721011  RH  029%=      5-min Rain = 0
KPD2 100214Z 26003KT 17/M01 A2982 RMK A01 T01711011  RH  029%=      5-min Rain = 0
KPD2 100215Z 25005KT 17/M01 A2982 RMK A01 T01711011  RH  029%=      5-min Rain = 0
KPD2 100216Z 27005KT 17/M01 A2982 RMK A01 T01701011  RH  029%=      5-min Rain = 0
KPD2 100217Z 26004KT 17/M01 A2982 RMK A01 T01691011  RH  029%=      5-min Rain = 0
KPD2 100218Z 27003KT 17/M01 A2982 RMK A01 T01681012  RH  029%=      5-min Rain = 0
KPD2 100219Z 26006G11KT 17/M01 A2982 RMK A01 T01671012  RH  029%=      5-min Rain = 0
KPD2 100220Z 28005KT 17/M01 A2982 RMK A01 T01661013  RH  029%=      5-min Rain = 0
KPD2 100221Z 26004KT 16/M02 A2982 RMK A01 T01641015  RH  029%=      5-min Rain = 0
KPD2 100222Z 19001KT 16/M01 A2982 RMK A01 T01631014  RH  030%=      5-min Rain = 0
KPD2 100223Z 24006KT 16/M01 A2982 RMK A01 T01611013  RH  030%=      5-min Rain = 0
KPD2 100224Z 23003KT 16/M01 A2982 RMK A01 T01631010  RH  031%=      5-min Rain = 0
KPD2 100225Z 27002KT 17/M01 A2982 RMK A01 T01661010  RH  030%=      5-min Rain = 0
KPD2 100226Z 28003KT 17/M01 A2982 RMK A01 T01661011  RH  030%=      5-min Rain = 0
KPD2 100227Z 26003KT 17/M01 A2982 RMK A01 T01661011  RH  030%=      5-min Rain = 0
KPD2 100228Z 27004KT 16/M01 A2982 RMK A01 T01641013  RH  030%=      5-min Rain = 0
KPD2 100229Z 31001KT 16/M02 A2982 RMK A01 T01621015  RH  030%=      5-min Rain = 0
KPD2 100230Z 22002KT 16/M01 A2982 RMK A01 T01611013  RH  030%=      5-min Rain = 0
KPD2 100231Z 20002KT 16/M01 A2982 RMK A01 T01601012  RH  031%=      5-min Rain = 0
KPD2 100232Z 20003KT 16/M01 A2982 RMK A01 T01601012  RH  031%=      5-min Rain = 0
KPD2 100233Z 23003KT 16/M01 A2982 RMK A01 T01621010  RH  031%=      5-min Rain = 0
KPD2 100234Z 21004KT 17/M01 A2982 RMK A01 T01651009  RH  031%=      5-min Rain = 0
KPD2 100235Z 23002KT 17/M01 A2982 RMK A01 T01671009  RH  030%=      5-min Rain = 0
KPD2 100236Z 28001KT 17/M01 A2982 RMK A01 T01671011  RH  030%=      5-min Rain = 0
KPD2 100237Z 31002KT 16/M02 A2982 RMK A01 T01631016  RH  029%=      5-min Rain = 0
KPD2 100238Z 31003KT 16/M02 A2982 RMK A01 T01571019  RH  030%=      5-min Rain = 0
KPD2 100239Z 30003KT 15/M02 A2983 RMK A01 T01541019  RH  031%=      5-min Rain = 0
KPD2 100240Z 32002KT 15/M02 A2983 RMK A01 T01501019  RH  031%=      5-min Rain = 0
KPD2 100241Z 23002KT 15/M02 A2983 RMK A01 T01471019  RH  032%=      5-min Rain = 0
KPD2 100242Z 27002KT 15/M02 A2983 RMK A01 T01451017  RH  033%=      5-min Rain = 0
KPD2 100243Z 31003KT 15/M02 A2983 RMK A01 T01451017  RH  033%=      5-min Rain = 0
KPD2 100244Z 33004KT 15/M02 A2983 RMK A01 T01451016  RH  033%=      5-min Rain = 0
KPD2 100245Z 01003KT 14/M02 A2983 RMK A01 T01441016  RH  033%=      5-min Rain = 0
KPD2 100246Z 34004KT 14/M02 A2983 RMK A01 T01431017  RH  033%=      5-min Rain = 0
KPD2 100247Z 35004KT 14/M02 A2982 RMK A01 T01391020  RH  033%=      5-min Rain = 0
KPD2 100248Z 35005KT 14/M02 A2982 RMK A01 T01371018  RH  034%=      5-min Rain = 0
KPD2 100249Z 35004KT 14/M02 A2983 RMK A01 T01361019  RH  034%=      5-min Rain = 0
KPD2 100250Z 35004KT 13/M02 A2983 RMK A01 T01341017  RH  035%=      5-min Rain = 0
KPD2 100251Z 36005KT 14/M02 A2983 RMK A01 T01351016  RH  035%=      5-min Rain = 0
KPD2 100252Z 35004KT 14/M02 A2983 RMK A01 T01351015  RH  035%=      5-min Rain = 0
KPD2 100253Z 00003KT 13/M02 A2982 RMK A01 T01341018  RH  035%=      5-min Rain = 0
KPD2 100254Z 35004KT 13/M02 A2982 RMK A01 T01331018  RH  035%=      5-min Rain = 0
KPD2 100255Z 35004KT 13/M02 A2982 RMK A01 T01321016  RH  036%=      5-min Rain = 0
KPD2 100256Z 00005KT 14/M01 A2982 RMK A01 T01351012  RH  036%=      5-min Rain = 0
KPD2 100257Z 00004KT 14/M01 A2982 RMK A01 T01391011  RH  036%=      5-min Rain = 0
KPD2 100258Z 00005KT 14/M01 A2982 RMK A01 T01411011  RH  035%=      5-min Rain = 0
KPD2 100259Z 35004KT 14/M01 A2982 RMK A01 T01431011  RH  035%=      5-min Rain = 0
KPD2 100300Z 35004KT 14/M01 A2982 RMK A01 T01441012  RH  034%=      5-min Rain = 0
KPD2 100301Z 36004KT 15/M01 A2982 RMK A01 T01451012  RH  034%=      5-min Rain = 0
KPD2 100302Z 00006KT 15/M01 A2982 RMK A01 T01451013  RH  034%=      5-min Rain = 0
KPD2 100303Z 01005KT 14/M01 A2982 RMK A01 T01441014  RH  034%=      5-min Rain = 0
KPD2 100304Z 36004KT 14/M01 A2982 RMK A01 T01431013  RH  034%=      5-min Rain = 0
KPD2 100305Z 36005KT 14/M01 A2982 RMK A01 T01421012  RH  035%=      5-min Rain = 0
KPD2 100306Z 00005KT 14/M01 A2982 RMK A01 T01431012  RH  034%=      5-min Rain = 0
KPD2 100307Z 00003KT 15/M01 A2982 RMK A01 T01451010  RH  035%=      5-min Rain = 0
KPD2 100308Z 01003KT 15/M01 A2982 RMK A01 T01481008  RH  034%=      5-min Rain = 0
KPD2 100309Z 36004KT 15/M01 A2982 RMK A01 T01511009  RH  033%=      5-min Rain = 0
KPD2 100310Z 01003KT 15/M01 A2982 RMK A01 T01511010  RH  033%=      5-min Rain = 0
KPD2 100311Z 00003KT 15/M01 A2982 RMK A01 T01521010  RH  033%=      5-min Rain = 0
KPD2 100312Z 01003KT 15/M01 A2982 RMK A01 T01521010  RH  033%=      5-min Rain = 0
KPD2 100313Z 01004KT 15/M01 A2982 RMK A01 T01531008  RH  033%=      5-min Rain = 0
KPD2 100314Z 01004KT 16/M01 A2982 RMK A01 T01551008  RH  033%=      5-min Rain = 0
KPD2 100315Z 01004KT 16/M01 A2982 RMK A01 T01561007  RH  033%=      5-min Rain = 0
KPD2 100316Z 02003KT 16/M01 A2982 RMK A01 T01561008  RH  032%=      5-min Rain = 0
KPD2 100317Z 36002KT 16/M01 A2982 RMK A01 T01561009  RH  032%=      5-min Rain = 0
KPD2 100318Z 00003KT 16/M01 A2982 RMK A01 T01551009  RH  032%=      5-min Rain = 0
KPD2 100319Z 04004KT 16/M01 A2982 RMK A01 T01551009  RH  033%=      5-min Rain = 0
KPD2 100320Z 01002KT 16/M01 A2982 RMK A01 T01551009  RH  033%=      5-min Rain = 0
KPD2 100321Z 31003KT 16/M01 A2982 RMK A01 T01551009  RH  033%=      5-min Rain = 0
KPD2 100322Z 35004KT 16/M01 A2982 RMK A01 T01551008  RH  033%=      5-min Rain = 0
KPD2 100323Z 01003KT 16/M01 A2982 RMK A01 T01551008  RH  033%=      5-min Rain = 0
KPD2 100324Z 01003KT 16/M01 A2982 RMK A01 T01551009  RH  033%=      5-min Rain = 0
KPD2 100325Z 35004KT 15/M01 A2982 RMK A01 T01541009  RH  033%=      5-min Rain = 0
KPD2 100326Z 36003KT 15/M01 A2982 RMK A01 T01541009  RH  033%=      5-min Rain = 0
KPD2 100327Z 35003KT 15/M01 A2982 RMK A01 T01541009  RH  033%=      5-min Rain = 0
KPD2 100328Z 35004KT 15/M01 A2982 RMK A01 T01521011  RH  033%=      5-min Rain = 0
KPD2 100329Z 33002KT 15/M01 A2982 RMK A01 T01491013  RH  033%=      5-min Rain = 0
KPD2 100330Z 01003KT 15/M02 A2982 RMK A01 T01451015  RH  033%=      5-min Rain = 0
KPD2 100331Z 36002KT 14/M02 A2982 RMK A01 T01411016  RH  034%=      5-min Rain = 0
KPD2 100332Z 01003KT 14/M02 A2982 RMK A01 T01381016  RH  034%=      5-min Rain = 0
KPD2 100333Z 01003KT 14/M01 A2982 RMK A01 T01361014  RH  035%=      5-min Rain = 0
KPD2 100334Z 34003KT 14/M01 A2982 RMK A01 T01371011  RH  036%=      5-min Rain = 0
KPD2 100335Z 35003KT 14/M01 A2981 RMK A01 T01381012  RH  036%=      5-min Rain = 0
KPD2 100336Z 35003KT 14/M01 A2981 RMK A01 T01401008  RH  036%=      5-min Rain = 0
KPD2 100337Z 33002KT 15/M00 A2981 RMK A01 T01461004  RH  036%=      5-min Rain = 0
KPD2 100338Z 35004KT 15/M00 A2981 RMK A01 T01541003  RH  034%=      5-min Rain = 0
KPD2 100339Z 35003KT 16/M01 A2981 RMK A01 T01561006  RH  033%=      5-min Rain = 0
KPD2 100340Z 35003KT 16/M01 A2981 RMK A01 T01561007  RH  033%=      5-min Rain = 0
KPD2 100341Z 35003KT 16/M01 A2981 RMK A01 T01551007  RH  033%=      5-min Rain = 0
KPD2 100342Z 32003KT 16/M01 A2981 RMK A01 T01551007  RH  033%=      5-min Rain = 0
KPD2 100343Z 32004KT 15/M01 A2981 RMK A01 T01521010  RH  033%=      5-min Rain = 0
KPD2 100344Z 34003KT 15/M01 A2981 RMK A01 T01491010  RH  033%=      5-min Rain = 0
KPD2 100345Z 35004KT 15/M01 A2981 RMK A01 T01461012  RH  034%=      5-min Rain = 0
KPD2 100346Z 28003KT 14/M01 A2981 RMK A01 T01431013  RH  034%=      5-min Rain = 0
KPD2 100347Z 29004KT 14/M02 A2981 RMK A01 T01401016  RH  034%=      5-min Rain = 0
KPD2 100348Z 34005KT 13/M02 A2981 RMK A01 T01341018  RH  035%=      5-min Rain = 0
KPD2 100349Z 35006KT 13/M02 A2981 RMK A01 T01311018  RH  036%=      5-min Rain = 0
KPD2 100350Z 34004KT 13/M02 A2981 RMK A01 T01271019  RH  036%=      5-min Rain = 0
KPD2 100351Z 34004KT 12/M02 A2981 RMK A01 T01241018  RH  037%=      5-min Rain = 0
KPD2 100352Z 35004KT 12/M02 A2981 RMK A01 T01221018  RH  038%=      5-min Rain = 0
KPD2 100353Z 00005KT 12/M02 A2981 RMK A01 T01211016  RH  038%=      5-min Rain = 0
KPD2 100354Z 36005KT 12/M02 A2981 RMK A01 T01221015  RH  039%=      5-min Rain = 0
KPD2 100355Z 00005KT 12/M01 A2981 RMK A01 T01231013  RH  039%=      5-min Rain = 0
KPD2 100356Z 00005KT 12/M01 A2981 RMK A01 T01241012  RH  039%=      5-min Rain = 0
KPD2 100357Z 35003KT 13/M01 A2981 RMK A01 T01261014  RH  038%=      5-min Rain = 0
KPD2 100358Z 33003KT 13/M01 A2981 RMK A01 T01261013  RH  038%=      5-min Rain = 0
KPD2 100359Z 33004KT 13/M01 A2981 RMK A01 T01271013  RH  038%=      5-min Rain = 0
KPD2 100400Z 32003KT 13/M01 A2981 RMK A01 T01271012  RH  038%=      5-min Rain = 0
KPD2 100401Z 28003KT 13/M01 A2981 RMK A01 T01261013  RH  038%=      5-min Rain = 0
KPD2 100402Z 29003KT 13/M01 A2981 RMK A01 T01261012  RH  038%=      5-min Rain = 0
KPD2 100403Z 26003KT 13/M01 A2981 RMK A01 T01261013  RH  038%=      5-min Rain = 0
KPD2 100404Z 26003KT 13/M01 A2981 RMK A01 T01251013  RH  038%=      5-min Rain = 0
KPD2 100405Z 25004KT 12/M01 A2981 RMK A01 T01241013  RH  039%=      5-min Rain = 0
KPD2 100406Z 26004KT 12/M01 A2981 RMK A01 T01241011  RH  039%=      5-min Rain = 0
KPD2 100407Z 26004KT 13/M01 A2981 RMK A01 T01251011  RH  039%=      5-min Rain = 0
KPD2 100408Z 28003KT 13/M01 A2981 RMK A01 T01251011  RH  039%=      5-min Rain = 0
KPD2 100409Z 30004KT 13/M01 A2981 RMK A01 T01261012  RH  039%=      5-min Rain = 0
KPD2 100410Z 29003KT 13/M01 A2981 RMK A01 T01251012  RH  039%=      5-min Rain = 0
KPD2 100411Z 28003KT 12/M01 A2981 RMK A01 T01241013  RH  038%=      5-min Rain = 0
KPD2 100412Z 31003KT 12/M01 A2981 RMK A01 T01241013  RH  039%=      5-min Rain = 0
KPD2 100413Z 31003KT 12/M01 A2981 RMK A01 T01241012  RH  039%=      5-min Rain = 0
KPD2 100414Z 32004KT 12/M01 A2981 RMK A01 T01241012  RH  039%=      5-min Rain = 0
KPD2 100415Z 31005KT 12/M01 A2981 RMK A01 T01241013  RH  039%=      5-min Rain = 0
KPD2 100416Z 31004KT 12/M02 A2981 RMK A01 T01221016  RH  038%=      5-min Rain = 0
KPD2 100417Z 30004KT 12/M02 A2981 RMK A01 T01201017  RH  039%=      5-min Rain = 0
KPD2 100418Z 31005KT 12/M02 A2981 RMK A01 T01181016  RH  039%=      5-min Rain = 0
KPD2 100419Z 33005KT 12/M02 A2981 RMK A01 T01171015  RH  040%=      5-min Rain = 0
KPD2 100420Z 32005KT 12/M01 A2981 RMK A01 T01171014  RH  040%=      5-min Rain = 0
KPD2 100421Z 33004KT 12/M01 A2981 RMK A01 T01171014  RH  040%=      5-min Rain = 0
KPD2 100422Z 34004KT 12/M01 A2981 RMK A01 T01191013  RH  040%=      5-min Rain = 0
KPD2 100423Z 33003KT 12/M01 A2981 RMK A01 T01201013  RH  040%=      5-min Rain = 0
KPD2 100424Z 29004KT 12/M01 A2981 RMK A01 T01211013  RH  039%=      5-min Rain = 0
KPD2 100425Z 30004KT 12/M01 A2981 RMK A01 T01211013  RH  039%=      5-min Rain = 0
KPD2 100426Z 30003KT 12/M01 A2982 RMK A01 T01211013  RH  040%=      5-min Rain = 0
KPD2 100427Z 28002KT 12/M01 A2982 RMK A01 T01211013  RH  039%=      5-min Rain = 0
KPD2 100428Z 26001KT 12/M01 A2982 RMK A01 T01211013  RH  039%=      5-min Rain = 0
KPD2 100429Z 26002KT 12/M01 A2982 RMK A01 T01211012  RH  040%=      5-min Rain = 0
KPD2 100430Z 25002KT 12/M01 A2982 RMK A01 T01211012  RH  040%=      5-min Rain = 0
KPD2 100431Z 26002KT 12/M01 A2982 RMK A01 T01221010  RH  040%=      5-min Rain = 0
KPD2 100432Z 30001KT 12/M01 A2982 RMK A01 T01231010  RH  040%=      5-min Rain = 0
KPD2 100433Z 29001KT 13/M01 A2982 RMK A01 T01251009  RH  039%=      5-min Rain = 0
KPD2 100434Z 32002KT 13/M01 A2982 RMK A01 T01281008  RH  039%=      5-min Rain = 0
KPD2 100435Z 33002KT 13/M01 A2982 RMK A01 T01301008  RH  038%=      5-min Rain = 0
KPD2 100436Z 33000KT 13/M01 A2982 RMK A01 T01311010  RH  038%=      5-min Rain = 0
KPD2 100437Z 00000KT 13/M01 A2982 RMK A01 T01291011  RH  038%=      5-min Rain = 0
KPD2 100438Z 30000KT 13/M01 A2982 RMK A01 T01291010  RH  038%=      5-min Rain = 0
KPD2 100439Z 01001KT 13/M01 A2982 RMK A01 T01291009  RH  038%=      5-min Rain = 0
KPD2 100440Z 02001KT 13/M01 A2982 RMK A01 T01311009  RH  038%=      5-min Rain = 0
KPD2 100441Z 04001KT 13/M01 A2982 RMK A01 T01331008  RH  038%=      5-min Rain = 0
KPD2 100442Z 13002KT 14/M01 A2982 RMK A01 T01351009  RH  037%=      5-min Rain = 0
KPD2 100443Z 14001KT 14/M01 A2982 RMK A01 T01351010  RH  037%=      5-min Rain = 0
KPD2 100444Z 14004KT 14/M01 A2982 RMK A01 T01361011  RH  036%=      5-min Rain = 0
KPD2 100445Z 13005KT 13/M01 A2982 RMK A01 T01331013  RH  036%=      5-min Rain = 0
KPD2 100446Z 12005KT 13/M01 A2982 RMK A01 T01311013  RH  037%=      5-min Rain = 0
KPD2 100447Z 11005KT 13/M01 A2982 RMK A01 T01301012  RH  037%=      5-min Rain = 0
KPD2 100448Z 12006KT 13/M01 A2982 RMK A01 T01291013  RH  037%=      5-min Rain = 0
KPD2 100449Z 12005KT 13/M01 A2982 RMK A01 T01281013  RH  038%=      5-min Rain = 0
KPD2 100450Z 12005KT 13/M01 A2982 RMK A01 T01281013  RH  038%=      5-min Rain = 0
KPD2 100451Z 13005KT 13/M01 A2982 RMK A01 T01271013  RH  038%=      5-min Rain = 0
KPD2 100452Z 12005KT 12/M01 A2982 RMK A01 T01241014  RH  038%=      5-min Rain = 0
KPD2 100453Z 14005KT 12/M02 A2982 RMK A01 T01221015  RH  039%=      5-min Rain = 0
KPD2 100454Z 12005KT 12/M02 A2982 RMK A01 T01201015  RH  039%=      5-min Rain = 0
KPD2 100455Z 12005KT 12/M02 A2982 RMK A01 T01181015  RH  040%=      5-min Rain = 0
KPD2 100456Z 12005KT 12/M02 A2982 RMK A01 T01161016  RH  040%=      5-min Rain = 0
KPD2 100457Z 11004KT 12/M02 A2982 RMK A01 T01151015  RH  040%=      5-min Rain = 0
KPD2 100458Z 12004KT 12/M02 A2982 RMK A01 T01151015  RH  041%=      5-min Rain = 0
KPD2 100459Z 11004KT 11/M02 A2982 RMK A01 T01141015  RH  041%=      5-min Rain = 0
KPD2 100500Z 09003KT 12/M01 A2982 RMK A01 T01151014  RH  041%=      5-min Rain = 0
KPD2 100501Z 09001KT 12/M01 A2982 RMK A01 T01161014  RH  041%=      5-min Rain = 0
KPD2 100502Z 16000KT 12/M02 A2982 RMK A01 T01151015  RH  040%=      5-min Rain = 0
KPD2 100503Z 15001KT 12/M01 A2982 RMK A01 T01161014  RH  040%=      5-min Rain = 0
KPD2 100504Z 13001KT 12/M02 A2982 RMK A01 T01161015  RH  040%=      5-min Rain = 0
KPD2 100505Z 15001KT 12/M02 A2982 RMK A01 T01161015  RH  040%=      5-min Rain = 0
KPD2 100506Z 15002KT 12/M01 A2982 RMK A01 T01161014  RH  040%=      5-min Rain = 0
KPD2 100507Z 12004KT 12/M01 A2982 RMK A01 T01161014  RH  040%=      5-min Rain = 0
KPD2 100508Z 13004KT 12/M02 A2982 RMK A01 T01161015  RH  040%=      5-min Rain = 0
KPD2 100509Z 11006KT 12/M02 A2982 RMK A01 T01151016  RH  040%=      5-min Rain = 0
KPD2 100510Z 10007KT 12/M01 A2982 RMK A01 T01151014  RH  041%=      5-min Rain = 0
KPD2 100511Z 11006KT 12/M01 A2982 RMK A01 T01191011  RH  040%=      5-min Rain = 0
KPD2 100512Z 11005KT 12/M01 A2982 RMK A01 T01231011  RH  039%=      5-min Rain = 0
KPD2 100513Z 11005KT 13/M01 A2981 RMK A01 T01271011  RH  039%=      5-min Rain = 0
KPD2 100514Z 12003KT 13/M01 A2982 RMK A01 T01301011  RH  038%=      5-min Rain = 0
KPD2 100515Z 13003KT 13/M01 A2982 RMK A01 T01331011  RH  037%=      5-min Rain = 0
KPD2 100516Z 15001KT 13/M01 A2982 RMK A01 T01331013  RH  036%=      5-min Rain = 0
KPD2 100517Z 15001KT 13/M01 A2982 RMK A01 T01321014  RH  037%=      5-min Rain = 0
KPD2 100518Z 13001KT 13/M01 A2981 RMK A01 T01291014  RH  037%=      5-min Rain = 0
KPD2 100519Z 15001KT 13/M01 A2981 RMK A01 T01271014  RH  038%=      5-min Rain = 0
KPD2 100520Z 00000KT 13/M01 A2981 RMK A01 T01271013  RH  038%=      5-min Rain = 0
KPD2 100521Z 00000KT 13/M01 A2981 RMK A01 T01271013  RH  038%=      5-min Rain = 0
KPD2 100522Z 00000KT 13/M01 A2981 RMK A01 T01281013  RH  038%=      5-min Rain = 0
KPD2 100523Z 08001KT 13/M01 A2981 RMK A01 T01281013  RH  038%=      5-min Rain = 0
KPD2 100524Z 11001KT 13/M01 A2981 RMK A01 T01291012  RH  037%=      5-min Rain = 0
KPD2 100525Z 13001KT 13/M01 A2981 RMK A01 T01301012  RH  037%=      5-min Rain = 0
KPD2 100526Z 18002KT 13/M01 A2981 RMK A01 T01301014  RH  037%=      5-min Rain = 0
KPD2 100527Z 22002KT 13/M01 A2981 RMK A01 T01281014  RH  037%=      5-min Rain = 0
KPD2 100528Z 23003KT 13/M02 A2981 RMK A01 T01251015  RH  038%=      5-min Rain = 0
KPD2 100529Z 25004KT 12/M02 A2981 RMK A01 T01191019  RH  038%=      5-min Rain = 0
KPD2 100530Z 23002KT 12/M02 A2981 RMK A01 T01151019  RH  039%=      5-min Rain = 0
KPD2 100531Z 22002KT 11/M02 A2981 RMK A01 T01121018  RH  040%=      5-min Rain = 0
KPD2 100532Z 21002KT 11/M02 A2981 RMK A01 T01111018  RH  041%=      5-min Rain = 0
KPD2 100533Z 19002KT 11/M02 A2981 RMK A01 T01091017  RH  041%=      5-min Rain = 0
KPD2 100534Z 19001KT 11/M02 A2981 RMK A01 T01091017  RH  042%=      5-min Rain = 0
KPD2 100535Z 13001KT 11/M02 A2981 RMK A01 T01081017  RH  042%=      5-min Rain = 0
KPD2 100536Z 00000KT 11/M02 A2981 RMK A01 T01081016  RH  042%=      5-min Rain = 0
KPD2 100537Z 18000KT 11/M02 A2981 RMK A01 T01081016  RH  042%=      5-min Rain = 0
KPD2 100538Z 13001KT 11/M02 A2981 RMK A01 T01081016  RH  042%=      5-min Rain = 0
KPD2 100539Z 12001KT 11/M02 A2981 RMK A01 T01091015  RH  042%=      5-min Rain = 0
KPD2 100540Z 09001KT 11/M01 A2981 RMK A01 T01111014  RH  042%=      5-min Rain = 0
KPD2 100541Z 09001KT 11/M02 A2981 RMK A01 T01111015  RH  041%=      5-min Rain = 0
KPD2 100542Z 08000KT 11/M02 A2981 RMK A01 T01121015  RH  041%=      5-min Rain = 0
KPD2 100543Z 08000KT 11/M01 A2981 RMK A01 T01121014  RH  041%=      5-min Rain = 0
KPD2 100544Z 00000KT 11/M02 A2981 RMK A01 T01131015  RH  041%=      5-min Rain = 0
KPD2 100545Z 00000KT 11/M02 A2981 RMK A01 T01131015  RH  041%=      5-min Rain = 0
KPD2 100546Z 33000KT 11/M01 A2981 RMK A01 T01131014  RH  041%=      5-min Rain = 0
KPD2 100547Z 32002KT 12/M01 A2981 RMK A01 T01151014  RH  041%=      5-min Rain = 0
KPD2 100548Z 32003KT 11/M02 A2981 RMK A01 T01141015  RH  041%=      5-min Rain = 0
KPD2 100549Z 31004KT 11/M02 A2981 RMK A01 T01121018  RH  041%=      5-min Rain = 0
KPD2 100550Z 32003KT 11/M02 A2981 RMK A01 T01091018  RH  041%=      5-min Rain = 0
KPD2 100551Z 32002KT 11/M02 A2981 RMK A01 T01081017  RH  042%=      5-min Rain = 0
KPD2 100552Z 32002KT 11/M02 A2981 RMK A01 T01071016  RH  042%=      5-min Rain = 0
KPD2 100553Z 33002KT 11/M02 A2981 RMK A01 T01071016  RH  042%=      5-min Rain = 0
KPD2 100554Z 34003KT 11/M02 A2981 RMK A01 T01071016  RH  042%=      5-min Rain = 0
KPD2 100555Z 34003KT 11/M02 A2981 RMK A01 T01081016  RH  042%=      5-min Rain = 0
KPD2 100556Z 34004KT 11/M02 A2981 RMK A01 T01081016  RH  042%=      5-min Rain = 0
KPD2 100557Z 35004KT 11/M02 A2981 RMK A01 T01081015  RH  042%=      5-min Rain = 0
KPD2 100558Z 36004KT 11/M02 A2981 RMK A01 T01081017  RH  042%=      5-min Rain = 0
KPD2 100559Z 36005KT 11/M02 A2981 RMK A01 T01061019  RH  042%=      5-min Rain = 0

Page generated in 0.0683 seconds.